Observation data for Snyder SSW on 05/16/2018      Previous  Date  Next       Current Mesonet Observations  Soil Data  Daily Summary Page  Observations in Plain Language
KWT1 160501Z 10002KT 20/17 A30 RMK A01 T02040167  RH  079%=      5-min Rain = 0
KWT1 160502Z 09003KT 20/17 A30 RMK A01 T02030166  RH  079%=      5-min Rain = 0
KWT1 160503Z 08003KT 20/17 A30 RMK A01 T02020166  RH  080%=      5-min Rain = 0
KWT1 160504Z 08003KT 20/17 A30 RMK A01 T02020166  RH  080%=      5-min Rain = 0
KWT1 160505Z 07004KT 20/17 A30 RMK A01 T02010166  RH  080%=      5-min Rain = 0
KWT1 160506Z 07005KT 20/17 A30 RMK A01 T02000166  RH  081%=      5-min Rain = 0
KWT1 160507Z 06006KT 20/17 A30 RMK A01 T01990167  RH  082%=      5-min Rain = 0
KWT1 160508Z 05008KT 20/17 A30 RMK A01 T01990167  RH  082%=      5-min Rain = 0
KWT1 160509Z 05009KT 20/17 A30 RMK A01 T01990167  RH  082%=      5-min Rain = 0
KWT1 160510Z 04009KT 20/17 A30 RMK A01 T01990168  RH  082%=      5-min Rain = 0
KWT1 160511Z 05009KT 20/17 A30 RMK A01 T01990168  RH  082%=      5-min Rain = 0
KWT1 160512Z 05008KT 20/17 A30 RMK A01 T01990168  RH  082%=      5-min Rain = 0
KWT1 160513Z 05007KT 20/17 A30 RMK A01 T02000168  RH  082%=      5-min Rain = 0
KWT1 160514Z 05007KT 20/17 A30 RMK A01 T02010168  RH  081%=      5-min Rain = 0
KWT1 160515Z 05006KT 20/17 A30 RMK A01 T02010168  RH  081%=      5-min Rain = 0
KWT1 160516Z 05006KT 20/17 A30 RMK A01 T02010168  RH  081%=      5-min Rain = 0
KWT1 160517Z 06006KT 20/17 A30 RMK A01 T02010169  RH  082%=      5-min Rain = 0
KWT1 160518Z 06007KT 20/17 A30 RMK A01 T02010168  RH  081%=      5-min Rain = 0
KWT1 160519Z 06006KT 20/17 A30 RMK A01 T02010167  RH  081%=      5-min Rain = 0
KWT1 160520Z 07005KT 20/17 A30 RMK A01 T02010167  RH  081%=      5-min Rain = 0
KWT1 160521Z 07006KT 20/17 A30 RMK A01 T02010166  RH  080%=      5-min Rain = 0
KWT1 160522Z 07006KT 20/17 A30 RMK A01 T02020166  RH  079%=      5-min Rain = 0
KWT1 160523Z 07006KT 20/17 A30 RMK A01 T02030166  RH  079%=      5-min Rain = 0
KWT1 160524Z 06005KT 20/17 A30 RMK A01 T02030165  RH  079%=      5-min Rain = 0
KWT1 160525Z 06006KT 20/17 A30 RMK A01 T02030165  RH  079%=      5-min Rain = 0
KWT1 160526Z 07006KT 20/17 A30 RMK A01 T02030165  RH  079%=      5-min Rain = 0
KWT1 160527Z 07005KT 20/17 A30 RMK A01 T02030165  RH  079%=      5-min Rain = 0
KWT1 160528Z 07004KT 20/17 A30 RMK A01 T02030165  RH  079%=      5-min Rain = 0
KWT1 160529Z 07005KT 20/17 A30 RMK A01 T02030165  RH  079%=      5-min Rain = 0
KWT1 160530Z 07004KT 20/16 A30 RMK A01 T02030164  RH  078%=      5-min Rain = 0
KWT1 160531Z 07006KT 20/16 A30 RMK A01 T02030164  RH  078%=      5-min Rain = 0
KWT1 160532Z 08005KT 20/16 A30 RMK A01 T02030164  RH  078%=      5-min Rain = 0
KWT1 160533Z 08005KT 20/16 A30 RMK A01 T02030164  RH  078%=      5-min Rain = 0
KWT1 160534Z 08005KT 20/16 A30 RMK A01 T02030163  RH  078%=      5-min Rain = 0
KWT1 160535Z 09006KT 20/16 A30 RMK A01 T02040164  RH  078%=      5-min Rain = 0
KWT1 160536Z 09005KT 20/16 A30 RMK A01 T02040163  RH  077%=      5-min Rain = 0
KWT1 160537Z 10005KT 20/16 A30 RMK A01 T02040163  RH  077%=      5-min Rain = 0
KWT1 160538Z 10006KT 20/16 A30 RMK A01 T02040164  RH  077%=      5-min Rain = 0
KWT1 160539Z 10006KT 21/16 A30 RMK A01 T02050163  RH  077%=      5-min Rain = 0
KWT1 160540Z 10006KT 21/16 A30 RMK A01 T02050163  RH  077%=      5-min Rain = 0
KWT1 160541Z 10006KT 21/16 A30 RMK A01 T02050163  RH  076%=      5-min Rain = 0
KWT1 160542Z 10006KT 21/16 A30 RMK A01 T02060163  RH  076%=      5-min Rain = 0
KWT1 160543Z 10006KT 21/16 A30 RMK A01 T02050163  RH  077%=      5-min Rain = 0
KWT1 160544Z 10005KT 21/16 A30 RMK A01 T02050163  RH  077%=      5-min Rain = 0
KWT1 160545Z 09004KT 20/16 A30 RMK A01 T02040163  RH  077%=      5-min Rain = 0
KWT1 160546Z 08005KT 20/16 A30 RMK A01 T02040163  RH  077%=      5-min Rain = 0
KWT1 160547Z 07006KT 20/16 A30 RMK A01 T02040163  RH  077%=      5-min Rain = 0
KWT1 160548Z 07005KT 20/16 A3001 RMK A01 T02040163  RH  077%=      5-min Rain = 0
KWT1 160549Z 06006KT 20/16 A3001 RMK A01 T02040164  RH  077%=      5-min Rain = 0
KWT1 160550Z 05006KT 20/16 A3001 RMK A01 T02040164  RH  077%=      5-min Rain = 0
KWT1 160551Z 05007KT 21/17 A3001 RMK A01 T02050165  RH  078%=      5-min Rain = 0
KWT1 160552Z 04007KT 20/17 A3001 RMK A01 T02040166  RH  079%=      5-min Rain = 0
KWT1 160553Z 04007KT 20/17 A3001 RMK A01 T02030166  RH  079%=      5-min Rain = 0
KWT1 160554Z 03007KT 20/17 A3001 RMK A01 T02030165  RH  079%=      5-min Rain = 0
KWT1 160555Z 03008KT 20/17 A3001 RMK A01 T02020166  RH  079%=      5-min Rain = 0
KWT1 160556Z 02008KT 20/17 A3002 RMK A01 T02020166  RH  080%=      5-min Rain = 0
KWT1 160557Z 02008KT 20/17 A3002 RMK A01 T02020166  RH  080%=      5-min Rain = 0
KWT1 160558Z 02011KT 20/17 A3002 RMK A01 T02020166  RH  080%=      5-min Rain = 0
KWT1 160559Z 03011KT 20/17 A3002 RMK A01 T02030165  RH  079%=      5-min Rain = 0
KWT1 160600Z 03008KT 20/17 A3002 RMK A01 T02040166  RH  079%=      5-min Rain = 0
KWT1 160601Z 03008KT 21/17 A3002 RMK A01 T02050165  RH  078%=      5-min Rain = 0
KWT1 160602Z 03006KT 21/17 A3002 RMK A01 T02050165  RH  078%=      5-min Rain = 0
KWT1 160603Z 04005KT 21/17 A3002 RMK A01 T02050165  RH  078%=      5-min Rain = 0
KWT1 160604Z 04004KT 21/17 A3002 RMK A01 T02050165  RH  078%=      5-min Rain = 0
KWT1 160605Z 08003KT 21/17 A3002 RMK A01 T02050165  RH  078%=      5-min Rain = 0
KWT1 160606Z 09005KT 21/16 A3001 RMK A01 T02050164  RH  077%=      5-min Rain = 0
KWT1 160607Z 09005KT 21/16 A3001 RMK A01 T02050163  RH  077%=      5-min Rain = 0
KWT1 160608Z 11005KT 21/16 A3001 RMK A01 T02060163  RH  077%=      5-min Rain = 0
KWT1 160609Z 12007KT 21/16 A3001 RMK A01 T02060164  RH  077%=      5-min Rain = 0
KWT1 160610Z 13007KT 21/17 A3001 RMK A01 T02050165  RH  078%=      5-min Rain = 0
KWT1 160611Z 14007KT 21/17 A3001 RMK A01 T02050165  RH  078%=      5-min Rain = 0
KWT1 160612Z 15008KT 20/17 A3001 RMK A01 T02040165  RH  078%=      5-min Rain = 0
KWT1 160613Z 15008KT 20/17 A30 RMK A01 T02030165  RH  078%=      5-min Rain = 0
KWT1 160614Z 15007KT 20/17 A30 RMK A01 T02030165  RH  079%=      5-min Rain = 0
KWT1 160615Z 14006KT 20/17 A30 RMK A01 T02030165  RH  079%=      5-min Rain = 0
KWT1 160616Z 13005KT 20/17 A3001 RMK A01 T02030165  RH  079%=      5-min Rain = 0
KWT1 160617Z 10004KT 20/17 A3001 RMK A01 T02020165  RH  079%=      5-min Rain = 0
KWT1 160618Z 07005KT 20/17 A3001 RMK A01 T02020165  RH  079%=      5-min Rain = 0
KWT1 160619Z 05008KT 20/17 A3001 RMK A01 T02010165  RH  080%=      5-min Rain = 0
KWT1 160620Z 04010KT 20/17 A3001 RMK A01 T01990165  RH  081%=      5-min Rain = 0
KWT1 160621Z 04010KT 20/17 A3002 RMK A01 T01980165  RH  081%=      5-min Rain = 0
KWT1 160622Z 04009KT 20/17 A3002 RMK A01 T01970165  RH  082%=      5-min Rain = 0
KWT1 160623Z 04009KT 20/17 A3002 RMK A01 T01970166  RH  082%=      5-min Rain = 0
KWT1 160624Z 05010KT 20/17 A3002 RMK A01 T01970165  RH  082%=      5-min Rain = 0
KWT1 160625Z 06009KT 20/16 A3002 RMK A01 T01980164  RH  081%=      5-min Rain = 0
KWT1 160626Z 07007KT 20/16 A3001 RMK A01 T01990164  RH  080%=      5-min Rain = 0
KWT1 160627Z 08007KT 20/16 A3001 RMK A01 T02000164  RH  080%=      5-min Rain = 0
KWT1 160628Z 09007KT 20/16 A3001 RMK A01 T02000163  RH  079%=      5-min Rain = 0
KWT1 160629Z 11007KT 20/16 A3001 RMK A01 T02010163  RH  079%=      5-min Rain = 0
KWT1 160630Z 12007KT 20/16 A30 RMK A01 T02020163  RH  078%=      5-min Rain = 0
KWT1 160631Z 12005KT 20/16 A30 RMK A01 T02020163  RH  078%=      5-min Rain = 0
KWT1 160632Z 11006KT 20/16 A30 RMK A01 T02030163  RH  078%=      5-min Rain = 0
KWT1 160633Z 09006KT 20/16 A30 RMK A01 T02020163  RH  078%=      5-min Rain = 0
KWT1 160634Z 08005KT 20/16 A3001 RMK A01 T02010163  RH  078%=      5-min Rain = 0
KWT1 160635Z 06006KT 20/16 A3001 RMK A01 T02010162  RH  079%=      5-min Rain = 0
KWT1 160636Z 05007KT 20/16 A3001 RMK A01 T02000163  RH  079%=      5-min Rain = 0
KWT1 160637Z 04008KT 20/16 A3001 RMK A01 T01990163  RH  080%=      5-min Rain = 0
KWT1 160638Z 04008KT 20/16 A3001 RMK A01 T01980163  RH  080%=      5-min Rain = 0
KWT1 160639Z 04008KT 20/16 A3001 RMK A01 T01970163  RH  081%=      5-min Rain = 0
KWT1 160640Z 05009KT 20/16 A3001 RMK A01 T01970162  RH  080%=      5-min Rain = 0
KWT1 160641Z 06007KT 20/16 A3001 RMK A01 T01980162  RH  079%=      5-min Rain = 0
KWT1 160642Z 07006KT 20/16 A3001 RMK A01 T01990161  RH  079%=      5-min Rain = 0
KWT1 160643Z 08005KT 20/16 A30 RMK A01 T02000161  RH  078%=      5-min Rain = 0
KWT1 160644Z 11004KT 20/16 A30 RMK A01 T02010161  RH  078%=      5-min Rain = 0
KWT1 160645Z 12005KT 20/16 A30 RMK A01 T02010162  RH  078%=      5-min Rain = 0
KWT1 160646Z 14005KT 20/16 A2999 RMK A01 T02010162  RH  078%=      5-min Rain = 0
KWT1 160647Z 14006KT 20/16 A2999 RMK A01 T02010162  RH  078%=      5-min Rain = 0
KWT1 160648Z 14006KT 20/16 A2999 RMK A01 T02000162  RH  078%=      5-min Rain = 0
KWT1 160649Z 13006KT 20/16 A2999 RMK A01 T02000162  RH  079%=      5-min Rain = 0
KWT1 160650Z 12006KT 20/16 A2999 RMK A01 T01990162  RH  079%=      5-min Rain = 0
KWT1 160651Z 12006KT 20/16 A2999 RMK A01 T01990162  RH  079%=      5-min Rain = 0
KWT1 160652Z 10006KT 20/16 A30 RMK A01 T01980162  RH  080%=      5-min Rain = 0
KWT1 160653Z 09006KT 20/16 A30 RMK A01 T01970161  RH  080%=      5-min Rain = 0
KWT1 160654Z 08006KT 20/16 A30 RMK A01 T01970162  RH  080%=      5-min Rain = 0
KWT1 160655Z 08006KT 20/16 A30 RMK A01 T01960162  RH  081%=      5-min Rain = 0
KWT1 160656Z 08007KT 20/16 A30 RMK A01 T01950162  RH  081%=      5-min Rain = 0
KWT1 160657Z 08007KT 20/16 A30 RMK A01 T01950162  RH  081%=      5-min Rain = 0
KWT1 160658Z 09007KT 20/16 A30 RMK A01 T01950162  RH  081%=      5-min Rain = 0
KWT1 160659Z 09007KT 20/16 A2999 RMK A01 T01950161  RH  081%=      5-min Rain = 0
KWT1 160700Z 10007KT 20/16 A2999 RMK A01 T01950162  RH  081%=      5-min Rain = 0
KWT1 160701Z 11007KT 20/16 A2999 RMK A01 T01950162  RH  081%=      5-min Rain = 0
KWT1 160702Z 12006KT 20/16 A2999 RMK A01 T01950162  RH  081%=      5-min Rain = 0
KWT1 160703Z 11006KT 20/16 A2998 RMK A01 T01950161  RH  081%=      5-min Rain = 0
KWT1 160704Z 12007KT 20/16 A2998 RMK A01 T01950162  RH  081%=      5-min Rain = 0
KWT1 160705Z 12007KT 20/16 A2998 RMK A01 T01950162  RH  081%=      5-min Rain = 0
KWT1 160706Z 12007KT 20/16 A2998 RMK A01 T01950162  RH  081%=      5-min Rain = 0
KWT1 160707Z 12007KT 19/16 A2998 RMK A01 T01940162  RH  081%=      5-min Rain = 0
KWT1 160708Z 12008KT 19/16 A2998 RMK A01 T01940162  RH  081%=      5-min Rain = 0
KWT1 160709Z 13007KT 19/16 A2998 RMK A01 T01940162  RH  081%=      5-min Rain = 0
KWT1 160710Z 12008KT 19/16 A2999 RMK A01 T01940162  RH  082%=      5-min Rain = 0
KWT1 160711Z 14008KT 19/16 A2999 RMK A01 T01940162  RH  082%=      5-min Rain = 0
KWT1 160712Z 15009KT 19/16 A2999 RMK A01 T01940163  RH  082%=      5-min Rain = 0
KWT1 160713Z 16010KT 19/16 A30 RMK A01 T01940164  RH  082%=      5-min Rain = 0
KWT1 160714Z 16011G16KT 19/17 A30 RMK A01 T01940165  RH  083%=      5-min Rain = 0
KWT1 160715Z 15011KT 19/17 A30 RMK A01 T01940165  RH  083%=      5-min Rain = 0
KWT1 160716Z 16014KT 19/16 A30 RMK A01 T01940164  RH  083%=      5-min Rain = 0
KWT1 160717Z 16018KT 19/16 A30 RMK A01 T01940162  RH  082%=      5-min Rain = 0
KWT1 160718Z 16014G19KT 19/16 A30 RMK A01 T01930160  RH  081%=      5-min Rain = 0
KWT1 160719Z 15012KT 19/16 A30 RMK A01 T01920160  RH  082%=      5-min Rain = 0
KWT1 160720Z 15012KT 19/16 A30 RMK A01 T01900159  RH  082%=      5-min Rain = 0
KWT1 160721Z 15014G19KT 19/16 A30 RMK A01 T01890158  RH  082%=      5-min Rain = 0
KWT1 160722Z 15012G17KT 19/16 A30 RMK A01 T01890157  RH  082%=      5-min Rain = 0
KWT1 160723Z 15011KT 19/16 A30 RMK A01 T01880157  RH  082%=      5-min Rain = 0
KWT1 160724Z 14011KT 19/16 A30 RMK A01 T01880157  RH  082%=      5-min Rain = 0
KWT1 160725Z 15011KT 19/16 A30 RMK A01 T01880156  RH  082%=      5-min Rain = 0
KWT1 160726Z 15011KT 19/16 A30 RMK A01 T01880156  RH  081%=      5-min Rain = 0
KWT1 160727Z 13011KT 19/15 A30 RMK A01 T01880154  RH  081%=      5-min Rain = 0
KWT1 160728Z 13011KT 19/15 A30 RMK A01 T01870153  RH  080%=      5-min Rain = 0
KWT1 160729Z 13011KT 19/15 A30 RMK A01 T01880153  RH  080%=      5-min Rain = 0
KWT1 160730Z 13013KT 19/15 A30 RMK A01 T01880153  RH  080%=      5-min Rain = 0
KWT1 160731Z 14011KT 19/15 A2999 RMK A01 T01880153  RH  080%=      5-min Rain = 0
KWT1 160732Z 14011KT 19/15 A2999 RMK A01 T01880153  RH  080%=      5-min Rain = 0
KWT1 160733Z 14011KT 19/15 A2999 RMK A01 T01880153  RH  080%=      5-min Rain = 0
KWT1 160734Z 15009KT 19/15 A2999 RMK A01 T01870154  RH  081%=      5-min Rain = 0
KWT1 160735Z 15009KT 19/15 A2999 RMK A01 T01870154  RH  081%=      5-min Rain = 0
KWT1 160736Z 14009KT 19/15 A2999 RMK A01 T01870153  RH  081%=      5-min Rain = 0
KWT1 160737Z 13008KT 19/15 A2999 RMK A01 T01860153  RH  081%=      5-min Rain = 0
KWT1 160738Z 13007KT 19/15 A2999 RMK A01 T01860153  RH  081%=      5-min Rain = 0
KWT1 160739Z 14006KT 19/15 A2999 RMK A01 T01860153  RH  081%=      5-min Rain = 0
KWT1 160740Z 14006KT 19/15 A2999 RMK A01 T01860153  RH  081%=      5-min Rain = 0
KWT1 160741Z 14006KT 19/15 A2999 RMK A01 T01860153  RH  081%=      5-min Rain = 0
KWT1 160742Z 14007KT 19/15 A2999 RMK A01 T01850153  RH  082%=      5-min Rain = 0
KWT1 160743Z 14008KT 19/15 A2999 RMK A01 T01850153  RH  082%=      5-min Rain = 0
KWT1 160744Z 14007KT 19/15 A30 RMK A01 T01850154  RH  082%=      5-min Rain = 0
KWT1 160745Z 15008KT 19/15 A30 RMK A01 T01850154  RH  082%=      5-min Rain = 0
KWT1 160746Z 15011KT 19/15 A30 RMK A01 T01850154  RH  082%=      5-min Rain = 0
KWT1 160747Z 15009KT 19/15 A2999 RMK A01 T01850154  RH  082%=      5-min Rain = 0
KWT1 160748Z 15007KT 19/16 A2999 RMK A01 T01850155  RH  083%=      5-min Rain = 0
KWT1 160749Z 15006KT 18/16 A2999 RMK A01 T01840156  RH  083%=      5-min Rain = 0
KWT1 160750Z 15008KT 18/16 A2999 RMK A01 T01840156  RH  084%=      5-min Rain = 0
KWT1 160751Z 15006KT 18/16 A2999 RMK A01 T01840156  RH  084%=      5-min Rain = 0
KWT1 160752Z 14005KT 18/16 A2999 RMK A01 T01840156  RH  084%=      5-min Rain = 0
KWT1 160753Z 15004KT 18/16 A2999 RMK A01 T01840157  RH  084%=      5-min Rain = 0
KWT1 160754Z 15004KT 18/16 A2999 RMK A01 T01840157  RH  084%=      5-min Rain = 0
KWT1 160755Z 15001KT 18/16 A30 RMK A01 T01830157  RH  084%=      5-min Rain = 0
KWT1 160756Z 14003KT 18/16 A30 RMK A01 T01830157  RH  084%=      5-min Rain = 0
KWT1 160757Z 04003KT 18/16 A30 RMK A01 T01830156  RH  084%=      5-min Rain = 0
KWT1 160758Z 05004KT 18/16 A30 RMK A01 T01830157  RH  084%=      5-min Rain = 0
KWT1 160759Z 03004KT 18/16 A30 RMK A01 T01840157  RH  085%=      5-min Rain = 0
KWT1 160800Z 02005KT 18/16 A30 RMK A01 T01830157  RH  085%=      5-min Rain = 0
KWT1 160801Z 02005KT 18/16 A30 RMK A01 T01830157  RH  085%=      5-min Rain = 0
KWT1 160802Z 01003KT 18/16 A3001 RMK A01 T01830157  RH  085%=      5-min Rain = 0
KWT1 160803Z 35002KT 18/16 A3001 RMK A01 T01830156  RH  084%=      5-min Rain = 0
KWT1 160804Z 34001KT 18/16 A3001 RMK A01 T01830156  RH  084%=      5-min Rain = 0
KWT1 160805Z 00000KT 18/16 A3001 RMK A01 T01840157  RH  084%=      5-min Rain = 0
KWT1 160806Z 25000KT 18/16 A30 RMK A01 T01830157  RH  084%=      5-min Rain = 0
KWT1 160807Z 20000KT 18/16 A30 RMK A01 T01830157  RH  084%=      5-min Rain = 0
KWT1 160808Z 17002KT 18/16 A30 RMK A01 T01840159  RH  086%=      5-min Rain = 0
KWT1 160809Z 16003KT 18/16 A30 RMK A01 T01840163  RH  087%=      5-min Rain = 0.01
KWT1 160810Z 16004KT 18/16 A30 RMK A01 T01830162  RH  088%=      5-min Rain = 0
KWT1 160811Z 16005KT 18/16 A30 RMK A01 T01810162  RH  089%=      5-min Rain = 0
KWT1 160812Z 16006KT 18/16 A2999 RMK A01 T01810163  RH  089%=      5-min Rain = 0.01
KWT1 160813Z 16007KT 18/16 A2999 RMK A01 T01800162  RH  089%=      5-min Rain = 0
KWT1 160814Z 15007KT 18/16 A2998 RMK A01 T01800162  RH  090%=      5-min Rain = 0
KWT1 160815Z 14007KT 18/16 A2998 RMK A01 T01800163  RH  090%=      5-min Rain = 0
KWT1 160816Z 14008KT 18/16 A2998 RMK A01 T01800164  RH  091%=      5-min Rain = 0
KWT1 160817Z 14007KT 18/16 A2998 RMK A01 T01790163  RH  090%=      5-min Rain = 0
KWT1 160818Z 14006KT 18/16 A2997 RMK A01 T01790164  RH  091%=      5-min Rain = 0
KWT1 160819Z 14006KT 18/16 A2997 RMK A01 T01790163  RH  091%=      5-min Rain = 0
KWT1 160820Z 14006KT 18/16 A2997 RMK A01 T01780164  RH  091%=      5-min Rain = 0
KWT1 160821Z 14007KT 18/16 A2997 RMK A01 T01780163  RH  091%=      5-min Rain = 0
KWT1 160822Z 15006KT 18/16 A2997 RMK A01 T01780164  RH  092%=      5-min Rain = 0
KWT1 160823Z 15006KT 18/16 A2997 RMK A01 T01770163  RH  092%=      5-min Rain = 0
KWT1 160824Z 15006KT 18/16 A2997 RMK A01 T01770164  RH  092%=      5-min Rain = 0
KWT1 160825Z 16005KT 18/16 A2997 RMK A01 T01770163  RH  092%=      5-min Rain = 0
KWT1 160826Z 16004KT 18/16 A2997 RMK A01 T01770163  RH  092%=      5-min Rain = 0
KWT1 160827Z 14002KT 18/16 A2997 RMK A01 T01770163  RH  092%=      5-min Rain = 0
KWT1 160828Z 13001KT 18/16 A2997 RMK A01 T01770163  RH  092%=      5-min Rain = 0
KWT1 160829Z 02001KT 18/16 A2998 RMK A01 T01760163  RH  092%=      5-min Rain = 0
KWT1 160830Z 33002KT 18/16 A2998 RMK A01 T01760163  RH  092%=      5-min Rain = 0
KWT1 160831Z 31004KT 18/16 A2999 RMK A01 T01760163  RH  092%=      5-min Rain = 0
KWT1 160832Z 30005KT 18/16 A30 RMK A01 T01750162  RH  092%=      5-min Rain = 0
KWT1 160833Z 31005KT 18/16 A30 RMK A01 T01750163  RH  093%=      5-min Rain = 0
KWT1 160834Z 35003KT 18/16 A2999 RMK A01 T01750162  RH  092%=      5-min Rain = 0
KWT1 160835Z 03004KT 18/16 A2999 RMK A01 T01750162  RH  092%=      5-min Rain = 0
KWT1 160836Z 06006KT 18/16 A2998 RMK A01 T01750162  RH  092%=      5-min Rain = 0
KWT1 160837Z 06006KT 18/16 A2998 RMK A01 T01750161  RH  091%=      5-min Rain = 0
KWT1 160838Z 07006KT 18/16 A2997 RMK A01 T01760160  RH  090%=      5-min Rain = 0
KWT1 160839Z 07005KT 18/16 A2997 RMK A01 T01770161  RH  090%=      5-min Rain = 0
KWT1 160840Z 09006KT 18/16 A2997 RMK A01 T01770161  RH  090%=      5-min Rain = 0
KWT1 160841Z 10006KT 18/16 A2997 RMK A01 T01770162  RH  091%=      5-min Rain = 0
KWT1 160842Z 12005KT 18/16 A2997 RMK A01 T01760162  RH  091%=      5-min Rain = 0
KWT1 160843Z 13004KT 18/16 A2997 RMK A01 T01770163  RH  091%=      5-min Rain = 0
KWT1 160844Z 13006KT 18/16 A2998 RMK A01 T01770161  RH  091%=      5-min Rain = 0
KWT1 160845Z 14006KT 18/16 A2998 RMK A01 T01770162  RH  091%=      5-min Rain = 0
KWT1 160846Z 13007KT 18/16 A2998 RMK A01 T01770163  RH  091%=      5-min Rain = 0
KWT1 160847Z 14006KT 18/16 A2998 RMK A01 T01770163  RH  091%=      5-min Rain = 0
KWT1 160848Z 16006KT 18/16 A2998 RMK A01 T01760163  RH  092%=      5-min Rain = 0
KWT1 160849Z 19005KT 18/16 A2998 RMK A01 T01760163  RH  092%=      5-min Rain = 0
KWT1 160850Z 20007KT 18/16 A2998 RMK A01 T01750163  RH  092%=      5-min Rain = 0
KWT1 160851Z 20006KT 18/16 A2998 RMK A01 T01750162  RH  092%=      5-min Rain = 0
KWT1 160852Z 20005KT 18/16 A2999 RMK A01 T01750163  RH  092%=      5-min Rain = 0
KWT1 160853Z 21007KT 18/16 A2999 RMK A01 T01750162  RH  092%=      5-min Rain = 0
KWT1 160854Z 21007KT 18/16 A2999 RMK A01 T01750163  RH  092%=      5-min Rain = 0
KWT1 160855Z 21007KT 18/16 A2999 RMK A01 T01750163  RH  092%=      5-min Rain = 0
KWT1 160856Z 20007KT 17/16 A2999 RMK A01 T01740162  RH  093%=      5-min Rain = 0
KWT1 160857Z 20007KT 17/16 A2998 RMK A01 T01740162  RH  093%=      5-min Rain = 0
KWT1 160858Z 19008KT 17/16 A2998 RMK A01 T01740162  RH  093%=      5-min Rain = 0
KWT1 160859Z 19008KT 17/16 A2998 RMK A01 T01740162  RH  093%=      5-min Rain = 0
KWT1 160900Z 18008KT 17/16 A2998 RMK A01 T01730162  RH  093%=      5-min Rain = 0
KWT1 160901Z 19007KT 17/16 A2998 RMK A01 T01730162  RH  093%=      5-min Rain = 0
KWT1 160902Z 19006KT 17/16 A2998 RMK A01 T01730162  RH  093%=      5-min Rain = 0
KWT1 160903Z 20005KT 17/16 A2998 RMK A01 T01730162  RH  093%=      5-min Rain = 0
KWT1 160904Z 20004KT 17/16 A2998 RMK A01 T01730162  RH  093%=      5-min Rain = 0
KWT1 160905Z 21004KT 17/16 A2998 RMK A01 T01730161  RH  093%=      5-min Rain = 0
KWT1 160906Z 21004KT 17/16 A2998 RMK A01 T01730162  RH  093%=      5-min Rain = 0
KWT1 160907Z 21004KT 17/16 A2997 RMK A01 T01730161  RH  093%=      5-min Rain = 0
KWT1 160908Z 19002KT 17/16 A2997 RMK A01 T01730161  RH  093%=      5-min Rain = 0
KWT1 160909Z 18003KT 17/16 A2997 RMK A01 T01720161  RH  093%=      5-min Rain = 0
KWT1 160910Z 19004KT 17/16 A2998 RMK A01 T01730162  RH  093%=      5-min Rain = 0
KWT1 160911Z 19005KT 17/16 A2998 RMK A01 T01730162  RH  093%=      5-min Rain = 0
KWT1 160912Z 19005KT 17/16 A2998 RMK A01 T01720161  RH  093%=      5-min Rain = 0
KWT1 160913Z 18005KT 17/16 A2998 RMK A01 T01720161  RH  094%=      5-min Rain = 0
KWT1 160914Z 19005KT 17/16 A2998 RMK A01 T01720162  RH  094%=      5-min Rain = 0
KWT1 160915Z 19005KT 17/16 A2998 RMK A01 T01720162  RH  094%=      5-min Rain = 0
KWT1 160916Z 19005KT 17/16 A2999 RMK A01 T01720163  RH  094%=      5-min Rain = 0
KWT1 160917Z 19005KT 17/16 A2999 RMK A01 T01720163  RH  094%=      5-min Rain = 0
KWT1 160918Z 18005KT 17/16 A2999 RMK A01 T01710162  RH  094%=      5-min Rain = 0
KWT1 160919Z 18004KT 17/16 A2999 RMK A01 T01710162  RH  094%=      5-min Rain = 0
KWT1 160920Z 18004KT 17/16 A2998 RMK A01 T01710162  RH  094%=      5-min Rain = 0
KWT1 160921Z 18003KT 17/16 A2998 RMK A01 T01710162  RH  094%=      5-min Rain = 0
KWT1 160922Z 18003KT 17/16 A2998 RMK A01 T01710162  RH  094%=      5-min Rain = 0
KWT1 160923Z 16002KT 17/16 A2998 RMK A01 T01710162  RH  095%=      5-min Rain = 0
KWT1 160924Z 16003KT 17/16 A2998 RMK A01 T01710162  RH  095%=      5-min Rain = 0
KWT1 160925Z 14002KT 17/16 A2998 RMK A01 T01710162  RH  095%=      5-min Rain = 0
KWT1 160926Z 13003KT 17/16 A2998 RMK A01 T01710162  RH  095%=      5-min Rain = 0
KWT1 160927Z 13003KT 17/16 A2998 RMK A01 T01710162  RH  095%=      5-min Rain = 0
KWT1 160928Z 12003KT 17/16 A2998 RMK A01 T01710162  RH  095%=      5-min Rain = 0
KWT1 160929Z 12003KT 17/16 A2998 RMK A01 T01710162  RH  095%=      5-min Rain = 0
KWT1 160930Z 12003KT 17/16 A2998 RMK A01 T01700162  RH  095%=      5-min Rain = 0
KWT1 160931Z 11002KT 17/16 A2998 RMK A01 T01700161  RH  095%=      5-min Rain = 0
KWT1 160932Z 09001KT 17/16 A2998 RMK A01 T01700161  RH  095%=      5-min Rain = 0
KWT1 160933Z 12001KT 17/16 A2998 RMK A01 T01690161  RH  095%=      5-min Rain = 0
KWT1 160934Z 13002KT 17/16 A2998 RMK A01 T01690161  RH  095%=      5-min Rain = 0
KWT1 160935Z 13002KT 17/16 A2999 RMK A01 T01690162  RH  095%=      5-min Rain = 0
KWT1 160936Z 12002KT 17/16 A2998 RMK A01 T01690162  RH  095%=      5-min Rain = 0
KWT1 160937Z 12001KT 17/16 A2998 RMK A01 T01690162  RH  095%=      5-min Rain = 0
KWT1 160938Z 12002KT 17/16 A2998 RMK A01 T01690162  RH  095%=      5-min Rain = 0
KWT1 160939Z 12002KT 17/16 A2998 RMK A01 T01690161  RH  095%=      5-min Rain = 0
KWT1 160940Z 11003KT 17/16 A2998 RMK A01 T01690161  RH  095%=      5-min Rain = 0
KWT1 160941Z 13003KT 17/16 A2998 RMK A01 T01680161  RH  095%=      5-min Rain = 0
KWT1 160942Z 14003KT 17/16 A2998 RMK A01 T01680161  RH  095%=      5-min Rain = 0
KWT1 160943Z 14003KT 17/16 A2998 RMK A01 T01680161  RH  095%=      5-min Rain = 0
KWT1 160944Z 14003KT 17/16 A2998 RMK A01 T01680160  RH  095%=      5-min Rain = 0
KWT1 160945Z 14003KT 17/16 A2997 RMK A01 T01680160  RH  095%=      5-min Rain = 0
KWT1 160946Z 14003KT 17/16 A2997 RMK A01 T01680160  RH  095%=      5-min Rain = 0
KWT1 160947Z 16003KT 17/16 A2997 RMK A01 T01680159  RH  095%=      5-min Rain = 0
KWT1 160948Z 16003KT 17/16 A2997 RMK A01 T01680159  RH  094%=      5-min Rain = 0
KWT1 160949Z 15003KT 17/16 A2997 RMK A01 T01680159  RH  094%=      5-min Rain = 0
KWT1 160950Z 14003KT 17/16 A2997 RMK A01 T01680159  RH  094%=      5-min Rain = 0
KWT1 160951Z 14004KT 17/16 A2997 RMK A01 T01680159  RH  094%=      5-min Rain = 0
KWT1 160952Z 14005KT 17/16 A2997 RMK A01 T01680158  RH  093%=      5-min Rain = 0
KWT1 160953Z 15004KT 17/16 A2997 RMK A01 T01680156  RH  093%=      5-min Rain = 0
KWT1 160954Z 14004KT 17/16 A2997 RMK A01 T01690156  RH  092%=      5-min Rain = 0
KWT1 160955Z 13004KT 17/16 A2997 RMK A01 T01690156  RH  092%=      5-min Rain = 0
KWT1 160956Z 12005KT 17/16 A2997 RMK A01 T01690155  RH  091%=      5-min Rain = 0
KWT1 160957Z 13005KT 17/16 A2997 RMK A01 T01700156  RH  091%=      5-min Rain = 0
KWT1 160958Z 13005KT 17/16 A2998 RMK A01 T01700156  RH  092%=      5-min Rain = 0
KWT1 160959Z 11005KT 17/16 A2998 RMK A01 T01700156  RH  092%=      5-min Rain = 0
KWT1 161000Z 10005KT 17/16 A2998 RMK A01 T01690156  RH  092%=      5-min Rain = 0
KWT1 161001Z 09006KT 17/16 A2997 RMK A01 T01680155  RH  092%=      5-min Rain = 0
KWT1 161002Z 10005KT 17/16 A2997 RMK A01 T01670155  RH  093%=      5-min Rain = 0
KWT1 161003Z 10006KT 17/16 A2997 RMK A01 T01670156  RH  093%=      5-min Rain = 0
KWT1 161004Z 10006KT 17/16 A2997 RMK A01 T01670156  RH  093%=      5-min Rain = 0
KWT1 161005Z 11006KT 17/16 A2998 RMK A01 T01670156  RH  093%=      5-min Rain = 0
KWT1 161006Z 11005KT 17/16 A2998 RMK A01 T01670156  RH  093%=      5-min Rain = 0
KWT1 161007Z 12005KT 17/16 A2998 RMK A01 T01670156  RH  093%=      5-min Rain = 0
KWT1 161008Z 13005KT 17/16 A2998 RMK A01 T01670156  RH  093%=      5-min Rain = 0
KWT1 161009Z 13004KT 17/16 A2998 RMK A01 T01670155  RH  093%=      5-min Rain = 0
KWT1 161010Z 13004KT 17/16 A2998 RMK A01 T01670156  RH  093%=      5-min Rain = 0
KWT1 161011Z 13004KT 17/16 A2998 RMK A01 T01660156  RH  094%=      5-min Rain = 0
KWT1 161012Z 14005KT 17/16 A2998 RMK A01 T01660156  RH  094%=      5-min Rain = 0
KWT1 161013Z 16005KT 17/16 A2998 RMK A01 T01660156  RH  094%=      5-min Rain = 0
KWT1 161014Z 16005KT 17/16 A2998 RMK A01 T01660156  RH  094%=      5-min Rain = 0
KWT1 161015Z 16005KT 17/16 A2998 RMK A01 T01660156  RH  093%=      5-min Rain = 0
KWT1 161016Z 17005KT 17/16 A2998 RMK A01 T01670156  RH  093%=      5-min Rain = 0
KWT1 161017Z 17005KT 17/16 A2998 RMK A01 T01680155  RH  092%=      5-min Rain = 0
KWT1 161018Z 18005KT 17/16 A2998 RMK A01 T01690155  RH  092%=      5-min Rain = 0
KWT1 161019Z 18005KT 17/16 A2998 RMK A01 T01690155  RH  091%=      5-min Rain = 0
KWT1 161020Z 18006KT 17/15 A2998 RMK A01 T01690154  RH  091%=      5-min Rain = 0
KWT1 161021Z 18007KT 17/15 A2998 RMK A01 T01700154  RH  090%=      5-min Rain = 0
KWT1 161022Z 18007KT 17/15 A2998 RMK A01 T01700154  RH  090%=      5-min Rain = 0
KWT1 161023Z 17007KT 17/15 A2997 RMK A01 T01710154  RH  090%=      5-min Rain = 0
KWT1 161024Z 18006KT 17/15 A2997 RMK A01 T01710153  RH  089%=      5-min Rain = 0
KWT1 161025Z 17006KT 17/15 A2997 RMK A01 T01720152  RH  088%=      5-min Rain = 0
KWT1 161026Z 17006KT 17/15 A2997 RMK A01 T01730152  RH  087%=      5-min Rain = 0
KWT1 161027Z 17006KT 17/15 A2997 RMK A01 T01740152  RH  087%=      5-min Rain = 0
KWT1 161028Z 17007KT 17/15 A2997 RMK A01 T01740152  RH  087%=      5-min Rain = 0
KWT1 161029Z 17006KT 17/15 A2997 RMK A01 T01740151  RH  086%=      5-min Rain = 0
KWT1 161030Z 17006KT 18/15 A2997 RMK A01 T01750151  RH  086%=      5-min Rain = 0
KWT1 161031Z 17006KT 18/15 A2998 RMK A01 T01750151  RH  086%=      5-min Rain = 0
KWT1 161032Z 17005KT 18/15 A2997 RMK A01 T01760151  RH  086%=      5-min Rain = 0
KWT1 161033Z 16005KT 18/15 A2997 RMK A01 T01750152  RH  086%=      5-min Rain = 0
KWT1 161034Z 15004KT 18/15 A2998 RMK A01 T01750152  RH  086%=      5-min Rain = 0
KWT1 161035Z 14003KT 17/15 A2998 RMK A01 T01740151  RH  086%=      5-min Rain = 0
KWT1 161036Z 12004KT 17/15 A2998 RMK A01 T01740151  RH  087%=      5-min Rain = 0
KWT1 161037Z 09004KT 17/15 A2998 RMK A01 T01740151  RH  087%=      5-min Rain = 0
KWT1 161038Z 06005KT 17/15 A2998 RMK A01 T01730151  RH  087%=      5-min Rain = 0
KWT1 161039Z 05007KT 17/15 A2998 RMK A01 T01710151  RH  088%=      5-min Rain = 0
KWT1 161040Z 05007KT 17/15 A2998 RMK A01 T01690153  RH  090%=      5-min Rain = 0
KWT1 161041Z 05006KT 17/15 A2999 RMK A01 T01680154  RH  092%=      5-min Rain = 0
KWT1 161042Z 05006KT 17/16 A2999 RMK A01 T01670155  RH  093%=      5-min Rain = 0
KWT1 161043Z 05006KT 17/16 A2999 RMK A01 T01660156  RH  094%=      5-min Rain = 0
KWT1 161044Z 04005KT 17/16 A2999 RMK A01 T01660156  RH  094%=      5-min Rain = 0
KWT1 161045Z 04006KT 17/16 A2999 RMK A01 T01650156  RH  095%=      5-min Rain = 0
KWT1 161046Z 04006KT 17/16 A2999 RMK A01 T01650157  RH  095%=      5-min Rain = 0
KWT1 161047Z 04006KT 16/16 A30 RMK A01 T01640156  RH  095%=      5-min Rain = 0
KWT1 161048Z 04007KT 16/16 A2999 RMK A01 T01640156  RH  095%=      5-min Rain = 0
KWT1 161049Z 03007KT 16/16 A2999 RMK A01 T01640157  RH  095%=      5-min Rain = 0
KWT1 161050Z 03007KT 16/16 A30 RMK A01 T01640157  RH  096%=      5-min Rain = 0
KWT1 161051Z 03006KT 16/16 A30 RMK A01 T01640157  RH  096%=      5-min Rain = 0
KWT1 161052Z 03006KT 16/16 A30 RMK A01 T01640158  RH  096%=      5-min Rain = 0
KWT1 161053Z 03005KT 17/16 A30 RMK A01 T01650158  RH  096%=      5-min Rain = 0
KWT1 161054Z 03005KT 17/16 A30 RMK A01 T01650158  RH  096%=      5-min Rain = 0
KWT1 161055Z 02004KT 17/16 A30 RMK A01 T01650158  RH  096%=      5-min Rain = 0
KWT1 161056Z 02004KT 17/16 A30 RMK A01 T01650158  RH  096%=      5-min Rain = 0
KWT1 161057Z 02005KT 17/16 A30 RMK A01 T01650159  RH  096%=      5-min Rain = 0
KWT1 161058Z 02004KT 17/16 A30 RMK A01 T01660159  RH  096%=      5-min Rain = 0
KWT1 161059Z 03004KT 17/16 A30 RMK A01 T01660159  RH  096%=      5-min Rain = 0
KWT1 161100Z 03004KT 17/16 A30 RMK A01 T01660159  RH  095%=      5-min Rain = 0
KWT1 161101Z 03005KT 17/16 A30 RMK A01 T01670160  RH  095%=      5-min Rain = 0
KWT1 161102Z 03005KT 17/16 A30 RMK A01 T01670160  RH  095%=      5-min Rain = 0
KWT1 161103Z 03005KT 17/16 A30 RMK A01 T01670160  RH  095%=      5-min Rain = 0
KWT1 161104Z 03005KT 17/16 A30 RMK A01 T01680160  RH  095%=      5-min Rain = 0
KWT1 161105Z 03005KT 17/16 A30 RMK A01 T01680160  RH  095%=      5-min Rain = 0
KWT1 161106Z 03004KT 17/16 A30 RMK A01 T01680159  RH  094%=      5-min Rain = 0
KWT1 161107Z 03005KT 17/16 A30 RMK A01 T01690159  RH  094%=      5-min Rain = 0
KWT1 161108Z 02004KT 17/16 A2999 RMK A01 T01690159  RH  094%=      5-min Rain = 0
KWT1 161109Z 02003KT 17/16 A2999 RMK A01 T01690158  RH  094%=      5-min Rain = 0
KWT1 161110Z 02003KT 17/16 A2999 RMK A01 T01690158  RH  093%=      5-min Rain = 0
KWT1 161111Z 02003KT 17/16 A2999 RMK A01 T01690158  RH  093%=      5-min Rain = 0
KWT1 161112Z 02002KT 17/16 A2999 RMK A01 T01690158  RH  093%=      5-min Rain = 0
KWT1 161113Z 00002KT 17/16 A2999 RMK A01 T01690158  RH  093%=      5-min Rain = 0
KWT1 161114Z 35002KT 17/16 A2999 RMK A01 T01690158  RH  093%=      5-min Rain = 0
KWT1 161115Z 34001KT 17/16 A2999 RMK A01 T01690158  RH  093%=      5-min Rain = 0
KWT1 161116Z 33002KT 17/16 A2999 RMK A01 T01690158  RH  093%=      5-min Rain = 0
KWT1 161117Z 33002KT 17/16 A2999 RMK A01 T01690158  RH  093%=      5-min Rain = 0
KWT1 161118Z 33002KT 17/16 A2999 RMK A01 T01690158  RH  093%=      5-min Rain = 0
KWT1 161119Z 34002KT 17/16 A2999 RMK A01 T01690157  RH  093%=      5-min Rain = 0
KWT1 161120Z 34002KT 17/16 A2999 RMK A01 T01690157  RH  093%=      5-min Rain = 0
KWT1 161121Z 35003KT 17/16 A2999 RMK A01 T01690157  RH  093%=      5-min Rain = 0
KWT1 161122Z 35003KT 17/16 A2999 RMK A01 T01690157  RH  093%=      5-min Rain = 0
KWT1 161123Z 36003KT 17/16 A2999 RMK A01 T01690157  RH  093%=      5-min Rain = 0
KWT1 161124Z 00003KT 17/16 A2999 RMK A01 T01690157  RH  093%=      5-min Rain = 0
KWT1 161125Z 01003KT 17/16 A30 RMK A01 T01680156  RH  093%=      5-min Rain = 0
KWT1 161126Z 01003KT 17/16 A30 RMK A01 T01680156  RH  093%=      5-min Rain = 0
KWT1 161127Z 36003KT 17/16 A30 RMK A01 T01670156  RH  093%=      5-min Rain = 0
KWT1 161128Z 35003KT 17/16 A2999 RMK A01 T01670156  RH  093%=      5-min Rain = 0
KWT1 161129Z 34004KT 17/16 A2999 RMK A01 T01670156  RH  093%=      5-min Rain = 0
KWT1 161130Z 33004KT 17/16 A2999 RMK A01 T01660156  RH  094%=      5-min Rain = 0
KWT1 161131Z 32004KT 17/16 A2999 RMK A01 T01670156  RH  094%=      5-min Rain = 0
KWT1 161132Z 32003KT 17/16 A2999 RMK A01 T01660156  RH  094%=      5-min Rain = 0
KWT1 161133Z 31004KT 17/16 A2999 RMK A01 T01650155  RH  094%=      5-min Rain = 0
KWT1 161134Z 31004KT 17/16 A2999 RMK A01 T01650155  RH  094%=      5-min Rain = 0
KWT1 161135Z 30003KT 16/16 A2999 RMK A01 T01640155  RH  094%=      5-min Rain = 0
KWT1 161136Z 29003KT 16/16 A2999 RMK A01 T01640155  RH  094%=      5-min Rain = 0
KWT1 161137Z 30003KT 17/16 A2999 RMK A01 T01650155  RH  094%=      5-min Rain = 0
KWT1 161138Z 31003KT 16/16 A2999 RMK A01 T01640155  RH  094%=      5-min Rain = 0
KWT1 161139Z 31002KT 17/16 A2999 RMK A01 T01650155  RH  094%=      5-min Rain = 0
KWT1 161140Z 32002KT 17/16 A2999 RMK A01 T01650155  RH  094%=      5-min Rain = 0
KWT1 161141Z 32002KT 17/16 A2999 RMK A01 T01650155  RH  094%=      5-min Rain = 0
KWT1 161142Z 31002KT 17/16 A2999 RMK A01 T01650155  RH  094%=      5-min Rain = 0
KWT1 161143Z 31002KT 17/16 A2999 RMK A01 T01650156  RH  094%=      5-min Rain = 0
KWT1 161144Z 31002KT 17/16 A30 RMK A01 T01650156  RH  094%=      5-min Rain = 0
KWT1 161145Z 30002KT 17/16 A30 RMK A01 T01660156  RH  094%=      5-min Rain = 0
KWT1 161146Z 30002KT 17/16 A30 RMK A01 T01670157  RH  094%=      5-min Rain = 0
KWT1 161147Z 31003KT 17/16 A2999 RMK A01 T01680157  RH  093%=      5-min Rain = 0
KWT1 161148Z 32003KT 17/16 A2999 RMK A01 T01680156  RH  093%=      5-min Rain = 0
KWT1 161149Z 33003KT 17/16 A2999 RMK A01 T01680156  RH  093%=      5-min Rain = 0
KWT1 161150Z 35002KT 17/16 A2999 RMK A01 T01670155  RH  093%=      5-min Rain = 0
KWT1 161151Z 35002KT 17/16 A2999 RMK A01 T01660155  RH  093%=      5-min Rain = 0
KWT1 161152Z 33002KT 17/16 A30 RMK A01 T01660155  RH  093%=      5-min Rain = 0
KWT1 161153Z 33001KT 17/16 A30 RMK A01 T01660155  RH  093%=      5-min Rain = 0
KWT1 161154Z 35001KT 17/16 A30 RMK A01 T01670155  RH  093%=      5-min Rain = 0
KWT1 161155Z 02001KT 17/16 A30 RMK A01 T01670156  RH  093%=      5-min Rain = 0
KWT1 161156Z 04002KT 17/16 A30 RMK A01 T01670155  RH  093%=      5-min Rain = 0
KWT1 161157Z 05002KT 17/16 A30 RMK A01 T01670155  RH  092%=      5-min Rain = 0
KWT1 161158Z 05002KT 17/15 A30 RMK A01 T01670154  RH  092%=      5-min Rain = 0
KWT1 161159Z 05002KT 17/15 A30 RMK A01 T01660154  RH  092%=      5-min Rain = 0
KWT1 161200Z 05002KT 17/15 A30 RMK A01 T01660154  RH  093%=      5-min Rain = 0
KWT1 161201Z 05002KT 17/15 A30 RMK A01 T01650154  RH  093%=      5-min Rain = 0
KWT1 161202Z 05002KT 16/15 A30 RMK A01 T01640154  RH  093%=      5-min Rain = 0
KWT1 161203Z 04002KT 16/15 A30 RMK A01 T01640154  RH  094%=      5-min Rain = 0
KWT1 161204Z 03002KT 16/15 A30 RMK A01 T01630153  RH  094%=      5-min Rain = 0
KWT1 161205Z 03001KT 16/15 A30 RMK A01 T01630154  RH  094%=      5-min Rain = 0
KWT1 161211Z 07002KT 16/15 A3001 RMK A01 T01630154  RH  095%=      5-min Rain = 0
KWT1 161212Z 07002KT 16/16 A3001 RMK A01 T01630155  RH  095%=      5-min Rain = 0
KWT1 161213Z 09002KT 16/16 A3001 RMK A01 T01630155  RH  095%=      5-min Rain = 0
KWT1 161214Z 09002KT 16/16 A3001 RMK A01 T01640156  RH  095%=      5-min Rain = 0
KWT1 161215Z 10003KT 17/16 A3001 RMK A01 T01650157  RH  095%=      5-min Rain = 0
KWT1 161216Z 12003KT 17/16 A3001 RMK A01 T01650155  RH  094%=      5-min Rain = 0
KWT1 161217Z 12004KT 16/15 A3001 RMK A01 T01630153  RH  093%=      5-min Rain = 0
KWT1 161218Z 11004KT 16/15 A3001 RMK A01 T01620153  RH  094%=      5-min Rain = 0
KWT1 161219Z 11004KT 16/15 A3001 RMK A01 T01620154  RH  095%=      5-min Rain = 0
KWT1 161220Z 12004KT 16/15 A3001 RMK A01 T01620154  RH  095%=      5-min Rain = 0
KWT1 161221Z 12004KT 16/16 A3001 RMK A01 T01630155  RH  095%=      5-min Rain = 0
KWT1 161222Z 11003KT 16/16 A3001 RMK A01 T01630155  RH  095%=      5-min Rain = 0
KWT1 161223Z 10003KT 16/16 A3001 RMK A01 T01630155  RH  095%=      5-min Rain = 0
KWT1 161224Z 11003KT 16/16 A3001 RMK A01 T01630155  RH  095%=      5-min Rain = 0
KWT1 161225Z 11002KT 16/16 A3001 RMK A01 T01630156  RH  095%=      5-min Rain = 0
KWT1 161226Z 11003KT 16/16 A3002 RMK A01 T01640156  RH  095%=      5-min Rain = 0
KWT1 161227Z 09003KT 17/16 A3002 RMK A01 T01650156  RH  094%=      5-min Rain = 0
KWT1 161228Z 08004KT 17/16 A3002 RMK A01 T01660156  RH  094%=      5-min Rain = 0
KWT1 161229Z 08004KT 17/16 A3002 RMK A01 T01660155  RH  093%=      5-min Rain = 0
KWT1 161230Z 08004KT 17/16 A3002 RMK A01 T01660155  RH  093%=      5-min Rain = 0
KWT1 161231Z 08003KT 17/16 A3002 RMK A01 T01660155  RH  093%=      5-min Rain = 0
KWT1 161232Z 09003KT 17/16 A3002 RMK A01 T01660155  RH  093%=      5-min Rain = 0
KWT1 161233Z 10003KT 17/16 A3002 RMK A01 T01660155  RH  093%=      5-min Rain = 0
KWT1 161234Z 09003KT 17/16 A3002 RMK A01 T01660155  RH  093%=      5-min Rain = 0
KWT1 161235Z 09003KT 17/16 A3003 RMK A01 T01670155  RH  093%=      5-min Rain = 0
KWT1 161236Z 08004KT 17/16 A3003 RMK A01 T01670156  RH  093%=      5-min Rain = 0
KWT1 161237Z 07004KT 17/16 A3003 RMK A01 T01670156  RH  093%=      5-min Rain = 0
KWT1 161238Z 07005KT 17/16 A3003 RMK A01 T01670156  RH  093%=      5-min Rain = 0
KWT1 161239Z 08004KT 17/16 A3003 RMK A01 T01670156  RH  093%=      5-min Rain = 0
KWT1 161240Z 09004KT 17/16 A3003 RMK A01 T01670156  RH  093%=      5-min Rain = 0
KWT1 161241Z 10003KT 17/16 A3003 RMK A01 T01670157  RH  094%=      5-min Rain = 0
KWT1 161242Z 13001KT 17/16 A3002 RMK A01 T01670156  RH  094%=      5-min Rain = 0
KWT1 161243Z 13001KT 17/16 A3002 RMK A01 T01670157  RH  094%=      5-min Rain = 0
KWT1 161244Z 12000KT 17/16 A3002 RMK A01 T01670158  RH  094%=      5-min Rain = 0
KWT1 161245Z 08002KT 17/16 A3002 RMK A01 T01680158  RH  094%=      5-min Rain = 0
KWT1 161246Z 08003KT 17/16 A3003 RMK A01 T01690159  RH  094%=      5-min Rain = 0
KWT1 161247Z 07005KT 17/16 A3003 RMK A01 T01690159  RH  094%=      5-min Rain = 0
KWT1 161248Z 06006KT 17/16 A3003 RMK A01 T01690159  RH  094%=      5-min Rain = 0
KWT1 161249Z 06007KT 17/16 A3003 RMK A01 T01700160  RH  094%=      5-min Rain = 0
KWT1 161250Z 05006KT 17/16 A3003 RMK A01 T01700160  RH  093%=      5-min Rain = 0
KWT1 161251Z 06004KT 17/16 A3003 RMK A01 T01710160  RH  093%=      5-min Rain = 0
KWT1 161252Z 08002KT 17/16 A3003 RMK A01 T01720160  RH  093%=      5-min Rain = 0
KWT1 161253Z 08003KT 17/16 A3003 RMK A01 T01720159  RH  092%=      5-min Rain = 0
KWT1 161254Z 07004KT 17/16 A3003 RMK A01 T01720158  RH  092%=      5-min Rain = 0
KWT1 161255Z 06006KT 17/16 A3003 RMK A01 T01730157  RH  090%=      5-min Rain = 0
KWT1 161256Z 04005KT 17/16 A3003 RMK A01 T01740157  RH  090%=      5-min Rain = 0
KWT1 161257Z 04004KT 18/16 A3003 RMK A01 T01750159  RH  090%=      5-min Rain = 0
KWT1 161258Z 03002KT 18/16 A3003 RMK A01 T01750158  RH  090%=      5-min Rain = 0
KWT1 161259Z 03001KT 18/16 A3003 RMK A01 T01750159  RH  090%=      5-min Rain = 0
KWT1 161300Z 04001KT 18/16 A3003 RMK A01 T01750160  RH  091%=      5-min Rain = 0
KWT1 161301Z 05002KT 18/16 A3003 RMK A01 T01750159  RH  091%=      5-min Rain = 0
KWT1 161302Z 03003KT 17/16 A3003 RMK A01 T01740159  RH  091%=      5-min Rain = 0
KWT1 161303Z 02004KT 17/16 A3003 RMK A01 T01740160  RH  091%=      5-min Rain = 0
KWT1 161304Z 02004KT 17/16 A3003 RMK A01 T01740159  RH  091%=      5-min Rain = 0
KWT1 161305Z 02005KT 17/16 A3003 RMK A01 T01730159  RH  091%=      5-min Rain = 0
KWT1 161306Z 03006KT 17/16 A3004 RMK A01 T01740160  RH  092%=      5-min Rain = 0
KWT1 161307Z 03007KT 17/16 A3004 RMK A01 T01730160  RH  092%=      5-min Rain = 0
KWT1 161308Z 03006KT 17/16 A3004 RMK A01 T01730161  RH  092%=      5-min Rain = 0
KWT1 161309Z 02003KT 17/16 A3004 RMK A01 T01730160  RH  092%=      5-min Rain = 0
KWT1 161310Z 01003KT 17/16 A3004 RMK A01 T01730160  RH  092%=      5-min Rain = 0
KWT1 161311Z 01003KT 17/16 A3004 RMK A01 T01730160  RH  092%=      5-min Rain = 0
KWT1 161312Z 02004KT 17/16 A3005 RMK A01 T01740160  RH  091%=      5-min Rain = 0
KWT1 161313Z 01002KT 17/16 A3005 RMK A01 T01740160  RH  091%=      5-min Rain = 0
KWT1 161314Z 03003KT 18/16 A3005 RMK A01 T01750161  RH  091%=      5-min Rain = 0
KWT1 161315Z 03003KT 18/16 A3005 RMK A01 T01750161  RH  091%=      5-min Rain = 0
KWT1 161316Z 03005KT 18/16 A3005 RMK A01 T01750161  RH  091%=      5-min Rain = 0
KWT1 161317Z 04007KT 18/16 A3005 RMK A01 T01760161  RH  091%=      5-min Rain = 0
KWT1 161318Z 03007KT 18/16 A3005 RMK A01 T01760163  RH  092%=      5-min Rain = 0
KWT1 161319Z 03006KT 18/16 A3005 RMK A01 T01760161  RH  091%=      5-min Rain = 0
KWT1 161320Z 04008KT 18/16 A3006 RMK A01 T01770160  RH  090%=      5-min Rain = 0
KWT1 161321Z 04009KT 18/16 A3006 RMK A01 T01780160  RH  089%=      5-min Rain = 0
KWT1 161322Z 03009KT 18/16 A3006 RMK A01 T01790161  RH  089%=      5-min Rain = 0
KWT1 161323Z 04010KT 18/16 A3007 RMK A01 T01790162  RH  090%=      5-min Rain = 0
KWT1 161324Z 03008KT 18/16 A3007 RMK A01 T01790161  RH  089%=      5-min Rain = 0
KWT1 161325Z 03009KT 18/16 A3007 RMK A01 T01790160  RH  088%=      5-min Rain = 0
KWT1 161326Z 03008KT 18/16 A3007 RMK A01 T01800160  RH  088%=      5-min Rain = 0
KWT1 161327Z 03006KT 18/16 A3007 RMK A01 T01800160  RH  088%=      5-min Rain = 0
KWT1 161328Z 04006KT 18/16 A3007 RMK A01 T01800160  RH  088%=      5-min Rain = 0
KWT1 161329Z 03008KT 18/16 A3007 RMK A01 T01810159  RH  087%=      5-min Rain = 0
KWT1 161330Z 04008KT 18/16 A3007 RMK A01 T01820159  RH  087%=      5-min Rain = 0
KWT1 161331Z 04011KT 18/16 A3007 RMK A01 T01820158  RH  086%=      5-min Rain = 0
KWT1 161332Z 04010KT 18/16 A3007 RMK A01 T01840159  RH  085%=      5-min Rain = 0
KWT1 161333Z 04010KT 19/16 A3007 RMK A01 T01860161  RH  085%=      5-min Rain = 0
KWT1 161334Z 05010KT 19/16 A3007 RMK A01 T01870161  RH  085%=      5-min Rain = 0
KWT1 161335Z 05010KT 19/16 A3007 RMK A01 T01880163  RH  085%=      5-min Rain = 0
KWT1 161336Z 05011KT 19/16 A3007 RMK A01 T01880161  RH  084%=      5-min Rain = 0
KWT1 161337Z 05009KT 19/16 A3008 RMK A01 T01880160  RH  084%=      5-min Rain = 0
KWT1 161338Z 05009KT 19/16 A3008 RMK A01 T01880159  RH  084%=      5-min Rain = 0
KWT1 161339Z 04010KT 19/16 A3008 RMK A01 T01880159  RH  084%=      5-min Rain = 0
KWT1 161340Z 04009KT 19/16 A3008 RMK A01 T01870159  RH  084%=      5-min Rain = 0
KWT1 161341Z 04008KT 19/16 A3008 RMK A01 T01870159  RH  084%=      5-min Rain = 0
KWT1 161342Z 05007KT 19/16 A3008 RMK A01 T01870160  RH  084%=      5-min Rain = 0
KWT1 161343Z 05008KT 19/16 A3008 RMK A01 T01870160  RH  084%=      5-min Rain = 0
KWT1 161344Z 04009KT 19/16 A3008 RMK A01 T01870160  RH  085%=      5-min Rain = 0
KWT1 161345Z 04008KT 19/16 A3008 RMK A01 T01870160  RH  084%=      5-min Rain = 0
KWT1 161346Z 05008KT 19/16 A3008 RMK A01 T01870160  RH  084%=      5-min Rain = 0
KWT1 161347Z 05006KT 19/16 A3008 RMK A01 T01870161  RH  085%=      5-min Rain = 0
KWT1 161348Z 06007KT 19/16 A3008 RMK A01 T01870162  RH  085%=      5-min Rain = 0
KWT1 161349Z 07008KT 19/16 A3008 RMK A01 T01870162  RH  085%=      5-min Rain = 0
KWT1 161350Z 07010KT 19/16 A3008 RMK A01 T01870162  RH  085%=      5-min Rain = 0
KWT1 161351Z 07010KT 19/16 A3008 RMK A01 T01880162  RH  085%=      5-min Rain = 0
KWT1 161352Z 07011KT 19/16 A3008 RMK A01 T01880162  RH  085%=      5-min Rain = 0
KWT1 161353Z 07012KT 19/16 A3008 RMK A01 T01880161  RH  084%=      5-min Rain = 0
KWT1 161354Z 07010KT 19/16 A3007 RMK A01 T01900162  RH  084%=      5-min Rain = 0
KWT1 161355Z 08011KT 19/16 A3007 RMK A01 T01920164  RH  084%=      5-min Rain = 0
KWT1 161356Z 08011KT 19/17 A3007 RMK A01 T01920165  RH  084%=      5-min Rain = 0
KWT1 161357Z 08010KT 19/17 A3007 RMK A01 T01930165  RH  084%=      5-min Rain = 0
KWT1 161358Z 09011KT 19/17 A3007 RMK A01 T01930165  RH  084%=      5-min Rain = 0
KWT1 161359Z 09010KT 19/16 A3008 RMK A01 T01920164  RH  083%=      5-min Rain = 0
KWT1 161400Z 09009KT 19/17 A3008 RMK A01 T01930165  RH  084%=      5-min Rain = 0
KWT1 161401Z 09007KT 19/16 A3008 RMK A01 T01930164  RH  084%=      5-min Rain = 0
KWT1 161402Z 07007KT 19/17 A3008 RMK A01 T01930165  RH  084%=      5-min Rain = 0
KWT1 161403Z 04006KT 19/16 A3008 RMK A01 T01940164  RH  083%=      5-min Rain = 0
KWT1 161404Z 05007KT 19/17 A3008 RMK A01 T01940166  RH  084%=      5-min Rain = 0
KWT1 161405Z 05007KT 20/17 A3008 RMK A01 T01950166  RH  083%=      5-min Rain = 0
KWT1 161406Z 06008KT 20/17 A3008 RMK A01 T01950166  RH  083%=      5-min Rain = 0
KWT1 161407Z 09005KT 20/17 A3007 RMK A01 T01970167  RH  083%=      5-min Rain = 0
KWT1 161408Z 10007KT 20/17 A3007 RMK A01 T01990168  RH  082%=      5-min Rain = 0
KWT1 161409Z 10008KT 20/17 A3007 RMK A01 T02010167  RH  081%=      5-min Rain = 0
KWT1 161410Z 09008KT 20/17 A3007 RMK A01 T02030167  RH  080%=      5-min Rain = 0
KWT1 161411Z 09007KT 20/17 A3007 RMK A01 T02030167  RH  079%=      5-min Rain = 0
KWT1 161412Z 08008KT 21/17 A3007 RMK A01 T02050168  RH  079%=      5-min Rain = 0
KWT1 161413Z 07008KT 21/17 A3007 RMK A01 T02060167  RH  078%=      5-min Rain = 0
KWT1 161414Z 07009KT 21/17 A3007 RMK A01 T02070168  RH  079%=      5-min Rain = 0
KWT1 161415Z 07010KT 21/17 A3007 RMK A01 T02060166  RH  078%=      5-min Rain = 0
KWT1 161416Z 07008KT 21/17 A3007 RMK A01 T02060166  RH  078%=      5-min Rain = 0
KWT1 161417Z 07009KT 21/17 A3007 RMK A01 T02060168  RH  079%=      5-min Rain = 0
KWT1 161418Z 06012KT 21/17 A3007 RMK A01 T02070169  RH  079%=      5-min Rain = 0
KWT1 161419Z 08011KT 21/17 A3007 RMK A01 T02080168  RH  078%=      5-min Rain = 0
KWT1 161420Z 08011KT 21/17 A3007 RMK A01 T02080165  RH  076%=      5-min Rain = 0
KWT1 161421Z 10009KT 21/17 A3007 RMK A01 T02070169  RH  078%=      5-min Rain = 0
KWT1 161422Z 10012KT 21/17 A3007 RMK A01 T02080169  RH  078%=      5-min Rain = 0
KWT1 161423Z 10011KT 21/16 A3007 RMK A01 T02080164  RH  076%=      5-min Rain = 0
KWT1 161424Z 10012KT 21/17 A3007 RMK A01 T02060166  RH  078%=      5-min Rain = 0
KWT1 161425Z 11012KT 21/17 A3007 RMK A01 T02050165  RH  078%=      5-min Rain = 0
KWT1 161426Z 11014KT 21/16 A3007 RMK A01 T02050164  RH  077%=      5-min Rain = 0
KWT1 161427Z 10014KT 20/16 A3007 RMK A01 T02040162  RH  077%=      5-min Rain = 0
KWT1 161428Z 10012KT 20/16 A3007 RMK A01 T02030162  RH  077%=      5-min Rain = 0
KWT1 161429Z 12011KT 20/17 A3007 RMK A01 T02030165  RH  079%=      5-min Rain = 0
KWT1 161430Z 11013KT 20/16 A3007 RMK A01 T02040163  RH  077%=      5-min Rain = 0
KWT1 161431Z 10012KT 20/16 A3007 RMK A01 T02040160  RH  076%=      5-min Rain = 0
KWT1 161432Z 11011KT 21/16 A3007 RMK A01 T02050162  RH  076%=      5-min Rain = 0
KWT1 161433Z 11010KT 21/17 A3007 RMK A01 T02070166  RH  077%=      5-min Rain = 0
KWT1 161434Z 12010KT 21/17 A3007 RMK A01 T02090165  RH  076%=      5-min Rain = 0
KWT1 161435Z 12011KT 21/17 A3007 RMK A01 T02090165  RH  076%=      5-min Rain = 0
KWT1 161436Z 12010KT 21/17 A3007 RMK A01 T02090166  RH  076%=      5-min Rain = 0
KWT1 161437Z 12010KT 21/16 A3007 RMK A01 T02080163  RH  075%=      5-min Rain = 0
KWT1 161438Z 12010KT 21/16 A3007 RMK A01 T02080162  RH  075%=      5-min Rain = 0
KWT1 161439Z 13010KT 21/16 A3007 RMK A01 T02080162  RH  075%=      5-min Rain = 0
KWT1 161440Z 13009KT 21/16 A3007 RMK A01 T02090161  RH  074%=      5-min Rain = 0
KWT1 161441Z 13008KT 21/16 A3007 RMK A01 T02100162  RH  074%=      5-min Rain = 0
KWT1 161442Z 12009KT 21/16 A3007 RMK A01 T02120161  RH  073%=      5-min Rain = 0
KWT1 161443Z 11009KT 21/16 A3007 RMK A01 T02140162  RH  072%=      5-min Rain = 0
KWT1 161444Z 12009KT 22/17 A3007 RMK A01 T02150165  RH  073%=      5-min Rain = 0
KWT1 161445Z 12009KT 22/17 A3007 RMK A01 T02170165  RH  072%=      5-min Rain = 0
KWT1 161446Z 13008KT 22/17 A3007 RMK A01 T02170166  RH  073%=      5-min Rain = 0
KWT1 161447Z 13010KT 22/17 A3007 RMK A01 T02170166  RH  073%=      5-min Rain = 0
KWT1 161448Z 12011KT 22/16 A3007 RMK A01 T02170163  RH  071%=      5-min Rain = 0
KWT1 161449Z 12008KT 22/16 A3007 RMK A01 T02160159  RH  070%=      5-min Rain = 0
KWT1 161450Z 14009KT 22/16 A3007 RMK A01 T02160164  RH  072%=      5-min Rain = 0
KWT1 161451Z 13010KT 22/16 A3007 RMK A01 T02150161  RH  071%=      5-min Rain = 0
KWT1 161452Z 12010KT 21/16 A3007 RMK A01 T02140161  RH  072%=      5-min Rain = 0
KWT1 161453Z 12010KT 21/16 A3007 RMK A01 T02130162  RH  072%=      5-min Rain = 0
KWT1 161454Z 12009KT 21/16 A3007 RMK A01 T02120161  RH  072%=      5-min Rain = 0
KWT1 161455Z 12011KT 21/16 A3007 RMK A01 T02120162  RH  073%=      5-min Rain = 0
KWT1 161456Z 12011KT 21/16 A3007 RMK A01 T02130160  RH  072%=      5-min Rain = 0
KWT1 161457Z 13011KT 21/16 A3007 RMK A01 T02140160  RH  072%=      5-min Rain = 0
KWT1 161458Z 13009KT 22/16 A3007 RMK A01 T02160163  RH  072%=      5-min Rain = 0
KWT1 161459Z 13009KT 22/16 A3007 RMK A01 T02180164  RH  071%=      5-min Rain = 0
KWT1 161500Z 13010KT 22/17 A3007 RMK A01 T02200166  RH  071%=      5-min Rain = 0
KWT1 161501Z 14009KT 22/16 A3007 RMK A01 T02210162  RH  069%=      5-min Rain = 0
KWT1 161502Z 14008KT 22/17 A3007 RMK A01 T02210165  RH  070%=      5-min Rain = 0
KWT1 161503Z 13008KT 22/17 A3007 RMK A01 T02200165  RH  071%=      5-min Rain = 0
KWT1 161504Z 14009KT 22/16 A3007 RMK A01 T02200163  RH  070%=      5-min Rain = 0
KWT1 161505Z 13010KT 22/16 A3007 RMK A01 T02200162  RH  069%=      5-min Rain = 0
KWT1 161506Z 13009KT 22/16 A3007 RMK A01 T02210160  RH  069%=      5-min Rain = 0
KWT1 161507Z 13007KT 22/16 A3007 RMK A01 T02200160  RH  069%=      5-min Rain = 0
KWT1 161508Z 15007KT 22/16 A3007 RMK A01 T02200163  RH  070%=      5-min Rain = 0
KWT1 161509Z 12010KT 22/16 A3007 RMK A01 T02220162  RH  069%=      5-min Rain = 0
KWT1 161510Z 13009KT 22/16 A3007 RMK A01 T02240162  RH  068%=      5-min Rain = 0
KWT1 161511Z 14009KT 23/16 A3007 RMK A01 T02260163  RH  067%=      5-min Rain = 0
KWT1 161512Z 15010KT 23/16 A3007 RMK A01 T02270162  RH  067%=      5-min Rain = 0
KWT1 161513Z 15011KT 23/16 A3007 RMK A01 T02270163  RH  067%=      5-min Rain = 0
KWT1 161514Z 15011KT 23/16 A3006 RMK A01 T02270162  RH  067%=      5-min Rain = 0
KWT1 161515Z 16013KT 23/16 A3006 RMK A01 T02280163  RH  067%=      5-min Rain = 0
KWT1 161516Z 15011KT 23/16 A3006 RMK A01 T02270163  RH  067%=      5-min Rain = 0
KWT1 161517Z 16009KT 23/17 A3006 RMK A01 T02260166  RH  069%=      5-min Rain = 0
KWT1 161518Z 16011KT 23/17 A3006 RMK A01 T02280166  RH  068%=      5-min Rain = 0
KWT1 161519Z 15011KT 23/16 A3006 RMK A01 T02290164  RH  067%=      5-min Rain = 0
KWT1 161520Z 15009KT 23/17 A3007 RMK A01 T02290166  RH  068%=      5-min Rain = 0
KWT1 161521Z 17010KT 23/16 A3007 RMK A01 T02290164  RH  066%=      5-min Rain = 0
KWT1 161522Z 16010KT 23/16 A3006 RMK A01 T02280162  RH  066%=      5-min Rain = 0
KWT1 161523Z 15011KT 23/16 A3007 RMK A01 T02270164  RH  068%=      5-min Rain = 0
KWT1 161524Z 15011KT 23/16 A3007 RMK A01 T02290163  RH  066%=      5-min Rain = 0
KWT1 161525Z 15007KT 23/16 A3007 RMK A01 T02270162  RH  066%=      5-min Rain = 0
KWT1 161526Z 15007KT 23/17 A3007 RMK A01 T02280167  RH  068%=      5-min Rain = 0
KWT1 161527Z 15008KT 23/17 A3007 RMK A01 T02310165  RH  066%=      5-min Rain = 0
KWT1 161528Z 15009KT 23/16 A3007 RMK A01 T02330161  RH  064%=      5-min Rain = 0
KWT1 161529Z 15011KT 23/16 A3007 RMK A01 T02330160  RH  064%=      5-min Rain = 0
KWT1 161530Z 14009KT 23/16 A3007 RMK A01 T02330159  RH  063%=      5-min Rain = 0
KWT1 161531Z 14009KT 23/16 A3007 RMK A01 T02330162  RH  065%=      5-min Rain = 0
KWT1 161532Z 14008KT 23/16 A3007 RMK A01 T02340161  RH  064%=      5-min Rain = 0
KWT1 161533Z 15007KT 23/16 A3006 RMK A01 T02340160  RH  063%=      5-min Rain = 0
KWT1 161534Z 12009KT 23/16 A3006 RMK A01 T02340161  RH  063%=      5-min Rain = 0
KWT1 161535Z 12008KT 23/16 A3006 RMK A01 T02340161  RH  063%=      5-min Rain = 0
KWT1 161536Z 14007KT 23/16 A3006 RMK A01 T02340161  RH  064%=      5-min Rain = 0
KWT1 161537Z 15008KT 24/16 A3006 RMK A01 T02360163  RH  064%=      5-min Rain = 0
KWT1 161538Z 15007KT 24/17 A3006 RMK A01 T02390167  RH  064%=      5-min Rain = 0
KWT1 161539Z 13008KT 24/16 A3006 RMK A01 T02400164  RH  062%=      5-min Rain = 0
KWT1 161540Z 14005KT 24/16 A3006 RMK A01 T02400162  RH  062%=      5-min Rain = 0
KWT1 161541Z 13007KT 24/16 A3006 RMK A01 T02390163  RH  062%=      5-min Rain = 0
KWT1 161542Z 15009KT 24/17 A3006 RMK A01 T02410165  RH  063%=      5-min Rain = 0
KWT1 161543Z 15009KT 24/16 A3006 RMK A01 T02430161  RH  060%=      5-min Rain = 0
KWT1 161544Z 16010KT 24/16 A3006 RMK A01 T02410160  RH  061%=      5-min Rain = 0
KWT1 161545Z 16010KT 24/16 A3006 RMK A01 T02380159  RH  061%=      5-min Rain = 0
KWT1 161546Z 16010KT 24/16 A3006 RMK A01 T02360160  RH  062%=      5-min Rain = 0
KWT1 161547Z 16011KT 24/16 A3006 RMK A01 T02360157  RH  061%=      5-min Rain = 0
KWT1 161548Z 16010KT 23/16 A3006 RMK A01 T02340158  RH  062%=      5-min Rain = 0
KWT1 161549Z 15010KT 24/16 A3006 RMK A01 T02350161  RH  063%=      5-min Rain = 0
KWT1 161550Z 14011KT 24/16 A3006 RMK A01 T02370161  RH  062%=      5-min Rain = 0
KWT1 161551Z 14007KT 24/16 A3006 RMK A01 T02370159  RH  062%=      5-min Rain = 0
KWT1 161552Z 15008KT 24/16 A3006 RMK A01 T02380160  RH  062%=      5-min Rain = 0
KWT1 161553Z 15008KT 24/16 A3006 RMK A01 T02380163  RH  063%=      5-min Rain = 0
KWT1 161554Z 13010KT 24/16 A3006 RMK A01 T02400163  RH  062%=      5-min Rain = 0
KWT1 161555Z 13010KT 24/16 A3006 RMK A01 T02400160  RH  061%=      5-min Rain = 0
KWT1 161556Z 12007KT 24/16 A3006 RMK A01 T02390161  RH  062%=      5-min Rain = 0
KWT1 161557Z 13006KT 24/16 A3006 RMK A01 T02390163  RH  063%=      5-min Rain = 0
KWT1 161558Z 15007KT 24/17 A3006 RMK A01 T02400165  RH  063%=      5-min Rain = 0
KWT1 161559Z 16004KT 24/16 A3006 RMK A01 T02410161  RH  061%=      5-min Rain = 0
KWT1 161600Z 15008KT 24/16 A3006 RMK A01 T02410164  RH  062%=      5-min Rain = 0
KWT1 161601Z 14009KT 24/16 A3006 RMK A01 T02420159  RH  060%=      5-min Rain = 0
KWT1 161602Z 14009KT 24/16 A3006 RMK A01 T02430160  RH  060%=      5-min Rain = 0
KWT1 161603Z 14009KT 24/16 A3006 RMK A01 T02440160  RH  059%=      5-min Rain = 0
KWT1 161604Z 14007KT 24/16 A3006 RMK A01 T02430161  RH  060%=      5-min Rain = 0
KWT1 161605Z 14009KT 24/16 A3005 RMK A01 T02440160  RH  060%=      5-min Rain = 0
KWT1 161606Z 14008KT 24/16 A3005 RMK A01 T02440160  RH  059%=      5-min Rain = 0
KWT1 161607Z 13006KT 25/16 A3005 RMK A01 T02450157  RH  058%=      5-min Rain = 0
KWT1 161608Z 15007KT 25/16 A3005 RMK A01 T02450160  RH  059%=      5-min Rain = 0
KWT1 161609Z 16008KT 25/16 A3005 RMK A01 T02460162  RH  059%=      5-min Rain = 0
KWT1 161610Z 16007KT 25/16 A3005 RMK A01 T02460160  RH  059%=      5-min Rain = 0
KWT1 161611Z 14008KT 25/16 A3005 RMK A01 T02450161  RH  059%=      5-min Rain = 0
KWT1 161612Z 14007KT 25/16 A3005 RMK A01 T02450157  RH  058%=      5-min Rain = 0
KWT1 161613Z 13006KT 25/16 A3005 RMK A01 T02460159  RH  059%=      5-min Rain = 0
KWT1 161614Z 12005KT 25/16 A3005 RMK A01 T02470159  RH  058%=      5-min Rain = 0
KWT1 161615Z 13007KT 25/16 A3005 RMK A01 T02500162  RH  058%=      5-min Rain = 0
KWT1 161616Z 13007KT 25/15 A3005 RMK A01 T02530152  RH  054%=      5-min Rain = 0
KWT1 161617Z 12006KT 25/16 A3005 RMK A01 T02540159  RH  055%=      5-min Rain = 0
KWT1 161618Z 13007KT 26/16 A3005 RMK A01 T02570156  RH  054%=      5-min Rain = 0
KWT1 161619Z 14006KT 26/15 A3005 RMK A01 T02570151  RH  052%=      5-min Rain = 0
KWT1 161620Z 14007KT 26/15 A3005 RMK A01 T02570151  RH  052%=      5-min Rain = 0
KWT1 161621Z 14007KT 26/15 A3005 RMK A01 T02580146  RH  050%=      5-min Rain = 0
KWT1 161622Z 15007KT 26/15 A3005 RMK A01 T02600153  RH  052%=      5-min Rain = 0
KWT1 161623Z 16006KT 26/15 A3005 RMK A01 T02610152  RH  051%=      5-min Rain = 0
KWT1 161624Z 14008KT 26/15 A3005 RMK A01 T02610154  RH  052%=      5-min Rain = 0
KWT1 161625Z 13009KT 26/15 A3005 RMK A01 T02630149  RH  050%=      5-min Rain = 0
KWT1 161626Z 13008KT 26/14 A3004 RMK A01 T02630142  RH  047%=      5-min Rain = 0
KWT1 161627Z 14010KT 26/14 A3004 RMK A01 T02630139  RH  046%=      5-min Rain = 0
KWT1 161628Z 16009KT 26/14 A3004 RMK A01 T02630141  RH  047%=      5-min Rain = 0
KWT1 161629Z 15010KT 26/14 A3004 RMK A01 T02640138  RH  046%=      5-min Rain = 0
KWT1 161630Z 15010KT 26/14 A3004 RMK A01 T02640137  RH  045%=      5-min Rain = 0
KWT1 161631Z 15009KT 26/14 A3004 RMK A01 T02640143  RH  047%=      5-min Rain = 0
KWT1 161632Z 15009KT 27/14 A3004 RMK A01 T02650142  RH  047%=      5-min Rain = 0
KWT1 161633Z 15007KT 27/15 A3004 RMK A01 T02650146  RH  048%=      5-min Rain = 0
KWT1 161634Z 16008KT 27/15 A3004 RMK A01 T02670150  RH  049%=      5-min Rain = 0
KWT1 161635Z 15009KT 27/15 A3004 RMK A01 T02690148  RH  048%=      5-min Rain = 0
KWT1 161636Z 15011KT 27/15 A3004 RMK A01 T02710147  RH  047%=      5-min Rain = 0
KWT1 161637Z 15009KT 27/15 A3004 RMK A01 T02720148  RH  047%=      5-min Rain = 0
KWT1 161638Z 17007KT 27/15 A3004 RMK A01 T02720150  RH  047%=      5-min Rain = 0
KWT1 161639Z 16011KT 27/15 A3004 RMK A01 T02720147  RH  046%=      5-min Rain = 0
KWT1 161640Z 15009KT 27/15 A3004 RMK A01 T02720148  RH  047%=      5-min Rain = 0
KWT1 161641Z 16009KT 27/15 A3004 RMK A01 T02710145  RH  046%=      5-min Rain = 0
KWT1 161642Z 15010KT 27/14 A3004 RMK A01 T02710143  RH  045%=      5-min Rain = 0
KWT1 161643Z 16012KT 27/14 A3004 RMK A01 T02730142  RH  045%=      5-min Rain = 0
KWT1 161644Z 15010KT 27/13 A3004 RMK A01 T02740133  RH  042%=      5-min Rain = 0
KWT1 161645Z 15011KT 28/13 A3004 RMK A01 T02760134  RH  042%=      5-min Rain = 0
KWT1 161646Z 16009KT 28/14 A3004 RMK A01 T02770137  RH  042%=      5-min Rain = 0
KWT1 161647Z 17010KT 28/14 A3004 RMK A01 T02790135  RH  041%=      5-min Rain = 0
KWT1 161648Z 17008KT 28/13 A3003 RMK A01 T02790130  RH  040%=      5-min Rain = 0
KWT1 161649Z 14010KT 28/14 A3004 RMK A01 T02780136  RH  041%=      5-min Rain = 0
KWT1 161650Z 14012KT 28/13 A3003 RMK A01 T02790128  RH  039%=      5-min Rain = 0
KWT1 161651Z 14009KT 28/13 A3003 RMK A01 T02780127  RH  039%=      5-min Rain = 0
KWT1 161652Z 14007KT 28/13 A3003 RMK A01 T02770134  RH  041%=      5-min Rain = 0
KWT1 161653Z 13009KT 28/14 A3003 RMK A01 T02780138  RH  042%=      5-min Rain = 0
KWT1 161654Z 14011KT 28/14 A3003 RMK A01 T02810135  RH  041%=      5-min Rain = 0
KWT1 161655Z 14010KT 28/13 A3003 RMK A01 T02800134  RH  041%=      5-min Rain = 0
KWT1 161656Z 14012KT 28/13 A3003 RMK A01 T02810131  RH  040%=      5-min Rain = 0
KWT1 161657Z 14011KT 28/13 A3003 RMK A01 T02820128  RH  039%=      5-min Rain = 0
KWT1 161658Z 16009KT 28/13 A3003 RMK A01 T02830133  RH  040%=      5-min Rain = 0
KWT1 161659Z 15010KT 28/13 A3003 RMK A01 T02840132  RH  039%=      5-min Rain = 0
KWT1 161700Z 15007KT 28/13 A3004 RMK A01 T02840133  RH  039%=      5-min Rain = 0
KWT1 161701Z 16006KT 28/14 A3004 RMK A01 T02830137  RH  041%=      5-min Rain = 0
KWT1 161702Z 14008KT 29/14 A3004 RMK A01 T02850138  RH  041%=      5-min Rain = 0
KWT1 161703Z 15006KT 29/13 A3004 RMK A01 T02880133  RH  038%=      5-min Rain = 0
KWT1 161704Z 16010KT 29/13 A3004 RMK A01 T02890131  RH  038%=      5-min Rain = 0
KWT1 161705Z 14009KT 29/13 A3004 RMK A01 T02870126  RH  037%=      5-min Rain = 0
KWT1 161706Z 13010KT 29/12 A3004 RMK A01 T02850122  RH  036%=      5-min Rain = 0
KWT1 161707Z 15009KT 29/12 A3004 RMK A01 T02860118  RH  036%=      5-min Rain = 0
KWT1 161708Z 15008KT 29/12 A3004 RMK A01 T02860118  RH  035%=      5-min Rain = 0
KWT1 161709Z 15007KT 29/13 A3004 RMK A01 T02870132  RH  038%=      5-min Rain = 0
KWT1 161710Z 11007KT 29/13 A3003 RMK A01 T02900128  RH  037%=      5-min Rain = 0
KWT1 161711Z 14009KT 29/12 A3003 RMK A01 T02920124  RH  036%=      5-min Rain = 0
KWT1 161712Z 13009KT 29/11 A3003 RMK A01 T02940109  RH  032%=      5-min Rain = 0
KWT1 161713Z 12008KT 29/12 A3003 RMK A01 T02930118  RH  034%=      5-min Rain = 0
KWT1 161714Z 13008KT 29/12 A3003 RMK A01 T02930123  RH  035%=      5-min Rain = 0
KWT1 161715Z 13009KT 30/13 A3003 RMK A01 T02950125  RH  035%=      5-min Rain = 0
KWT1 161716Z 14008KT 30/11 A3003 RMK A01 T02970111  RH  032%=      5-min Rain = 0
KWT1 161717Z 14007KT 30/12 A3003 RMK A01 T02980116  RH  033%=      5-min Rain = 0
KWT1 161718Z 14009KT 30/12 A3003 RMK A01 T02970116  RH  033%=      5-min Rain = 0
KWT1 161719Z 13008KT 30/12 A3003 RMK A01 T02960117  RH  033%=      5-min Rain = 0
KWT1 161720Z 12009KT 30/12 A3003 RMK A01 T02970120  RH  034%=      5-min Rain = 0
KWT1 161721Z 11009KT 30/12 A3003 RMK A01 T02980115  RH  032%=      5-min Rain = 0
KWT1 161722Z 11009KT 30/12 A3003 RMK A01 T03000120  RH  033%=      5-min Rain = 0
KWT1 161723Z 13008KT 30/12 A3003 RMK A01 T03010117  RH  032%=      5-min Rain = 0
KWT1 161724Z 16009KT 30/12 A3003 RMK A01 T03020115  RH  032%=      5-min Rain = 0
KWT1 161725Z 16008KT 30/12 A3003 RMK A01 T03010115  RH  032%=      5-min Rain = 0
KWT1 161726Z 14009KT 30/11 A3003 RMK A01 T02990113  RH  032%=      5-min Rain = 0
KWT1 161727Z 14008KT 30/11 A3003 RMK A01 T02980111  RH  031%=      5-min Rain = 0
KWT1 161728Z 15007KT 30/11 A3003 RMK A01 T02970114  RH  032%=      5-min Rain = 0
KWT1 161729Z 16006KT 30/12 A3003 RMK A01 T02970117  RH  033%=      5-min Rain = 0
KWT1 161730Z 15011KT 30/12 A3003 RMK A01 T02980116  RH  033%=      5-min Rain = 0
KWT1 161731Z 14009KT 30/12 A3003 RMK A01 T02980120  RH  033%=      5-min Rain = 0
KWT1 161732Z 15008KT 30/12 A3003 RMK A01 T03000118  RH  033%=      5-min Rain = 0
KWT1 161733Z 15007KT 30/12 A3003 RMK A01 T03000124  RH  034%=      5-min Rain = 0
KWT1 161734Z 14011KT 30/12 A3003 RMK A01 T03020116  RH  032%=      5-min Rain = 0
KWT1 161735Z 15009KT 30/12 A3003 RMK A01 T03040115  RH  031%=      5-min Rain = 0
KWT1 161736Z 16013KT 31/12 A3003 RMK A01 T03050119  RH  032%=      5-min Rain = 0
KWT1 161737Z 16013KT 30/12 A3003 RMK A01 T03040116  RH  031%=      5-min Rain = 0
KWT1 161738Z 16012KT 30/12 A3003 RMK A01 T02990119  RH  033%=      5-min Rain = 0
KWT1 161739Z 15012KT 30/13 A3003 RMK A01 T02980126  RH  035%=      5-min Rain = 0
KWT1 161740Z 14012KT 30/13 A3003 RMK A01 T02990132  RH  036%=      5-min Rain = 0
KWT1 161741Z 14010KT 30/13 A3003 RMK A01 T03000128  RH  035%=      5-min Rain = 0
KWT1 161742Z 16013KT 30/13 A3003 RMK A01 T03010126  RH  034%=      5-min Rain = 0
KWT1 161743Z 15012KT 30/11 A3003 RMK A01 T03020112  RH  031%=      5-min Rain = 0
KWT1 161744Z 15013KT 30/12 A3003 RMK A01 T03010120  RH  033%=      5-min Rain = 0
KWT1 161745Z 15014KT 30/11 A3003 RMK A01 T03010108  RH  030%=      5-min Rain = 0
KWT1 161746Z 14011KT 30/11 A3003 RMK A01 T02990107  RH  030%=      5-min Rain = 0
KWT1 161747Z 16009KT 30/11 A3002 RMK A01 T02990114  RH  032%=      5-min Rain = 0
KWT1 161748Z 16007KT 30/11 A3002 RMK A01 T03000114  RH  032%=      5-min Rain = 0
KWT1 161749Z 13009KT 30/12 A3002 RMK A01 T03010121  RH  033%=      5-min Rain = 0
KWT1 161750Z 14009KT 30/12 A3002 RMK A01 T03030115  RH  031%=      5-min Rain = 0
KWT1 161751Z 14008KT 30/12 A3002 RMK A01 T03030119  RH  032%=      5-min Rain = 0
KWT1 161752Z 14009KT 30/12 A3002 RMK A01 T03030117  RH  032%=      5-min Rain = 0
KWT1 161753Z 12009KT 30/12 A3002 RMK A01 T03030117  RH  032%=      5-min Rain = 0
KWT1 161754Z 13009KT 31/11 A3002 RMK A01 T03050111  RH  030%=      5-min Rain = 0
KWT1 161755Z 12012KT 31/11 A3002 RMK A01 T03060113  RH  030%=      5-min Rain = 0
KWT1 161756Z 12011KT 31/11 A3002 RMK A01 T03070114  RH  031%=      5-min Rain = 0
KWT1 161757Z 13010KT 31/11 A3002 RMK A01 T03070112  RH  030%=      5-min Rain = 0
KWT1 161758Z 14010KT 30/11 A3002 RMK A01 T03040112  RH  031%=      5-min Rain = 0
KWT1 161759Z 16010KT 30/11 A3002 RMK A01 T03010110  RH  031%=      5-min Rain = 0
KWT1 161800Z 15010KT 30/11 A3002 RMK A01 T02990114  RH  032%=      5-min Rain = 0
KWT1 161801Z 13009KT 30/12 A3002 RMK A01 T02980115  RH  032%=      5-min Rain = 0
KWT1 161802Z 14008KT 30/11 A3002 RMK A01 T03000111  RH  031%=      5-min Rain = 0
KWT1 161803Z 14011KT 30/11 A3002 RMK A01 T03000114  RH  032%=      5-min Rain = 0
KWT1 161804Z 13010KT 30/12 A3001 RMK A01 T03010117  RH  032%=      5-min Rain = 0
KWT1 161805Z 14012KT 30/12 A3001 RMK A01 T03020115  RH  031%=      5-min Rain = 0
KWT1 161806Z 14009KT 30/11 A3001 RMK A01 T03020109  RH  030%=      5-min Rain = 0
KWT1 161807Z 13011KT 30/11 A3001 RMK A01 T03010113  RH  031%=      5-min Rain = 0
KWT1 161808Z 13009KT 30/11 A3001 RMK A01 T03000112  RH  031%=      5-min Rain = 0
KWT1 161809Z 15010KT 30/12 A3001 RMK A01 T03010115  RH  032%=      5-min Rain = 0
KWT1 161810Z 15010KT 31/12 A3001 RMK A01 T03050118  RH  032%=      5-min Rain = 0
KWT1 161811Z 14012G17KT 31/11 A3001 RMK A01 T03070113  RH  030%=      5-min Rain = 0
KWT1 161812Z 13013KT 31/11 A3001 RMK A01 T03060114  RH  031%=      5-min Rain = 0
KWT1 161813Z 13010KT 31/12 A3001 RMK A01 T03050119  RH  032%=      5-min Rain = 0
KWT1 161814Z 13010KT 31/11 A3001 RMK A01 T03060114  RH  031%=      5-min Rain = 0
KWT1 161815Z 12010KT 31/12 A3001 RMK A01 T03080115  RH  031%=      5-min Rain = 0
KWT1 161816Z 13011KT 31/12 A3001 RMK A01 T03080116  RH  031%=      5-min Rain = 0
KWT1 161817Z 14009KT 31/11 A3001 RMK A01 T03060111  RH  030%=      5-min Rain = 0
KWT1 161818Z 15008KT 30/11 A3001 RMK A01 T03030113  RH  031%=      5-min Rain = 0
KWT1 161819Z 16006KT 30/12 A3001 RMK A01 T03020117  RH  032%=      5-min Rain = 0
KWT1 161820Z 14009KT 31/12 A3001 RMK A01 T03060120  RH  032%=      5-min Rain = 0
KWT1 161821Z 14009G15KT 31/12 A3001 RMK A01 T03090117  RH  031%=      5-min Rain = 0
KWT1 161822Z 16013KT 31/12 A3001 RMK A01 T03100118  RH  031%=      5-min Rain = 0
KWT1 161823Z 16010KT 31/11 A3001 RMK A01 T03080112  RH  030%=      5-min Rain = 0
KWT1 161824Z 15010KT 30/11 A3001 RMK A01 T03040112  RH  031%=      5-min Rain = 0
KWT1 161825Z 13009KT 30/12 A3001 RMK A01 T03030119  RH  032%=      5-min Rain = 0
KWT1 161826Z 13011KT 30/11 A3001 RMK A01 T03020114  RH  031%=      5-min Rain = 0
KWT1 161827Z 14011KT 30/12 A3001 RMK A01 T03020115  RH  032%=      5-min Rain = 0
KWT1 161828Z 15011KT 30/12 A3001 RMK A01 T03010118  RH  032%=      5-min Rain = 0
KWT1 161829Z 16013KT 30/12 A3001 RMK A01 T03010118  RH  032%=      5-min Rain = 0
KWT1 161830Z 15011KT 30/12 A3001 RMK A01 T03000117  RH  032%=      5-min Rain = 0
KWT1 161831Z 15011KT 30/12 A3001 RMK A01 T03020123  RH  033%=      5-min Rain = 0
KWT1 161832Z 14012KT 31/12 A30 RMK A01 T03050123  RH  033%=      5-min Rain = 0
KWT1 161833Z 13010KT 31/13 A3001 RMK A01 T03070126  RH  033%=      5-min Rain = 0
KWT1 161834Z 14010KT 31/13 A3001 RMK A01 T03070125  RH  033%=      5-min Rain = 0
KWT1 161835Z 12008KT 31/12 A3001 RMK A01 T03050124  RH  033%=      5-min Rain = 0
KWT1 161836Z 13009KT 30/11 A3001 RMK A01 T03020113  RH  031%=      5-min Rain = 0
KWT1 161837Z 13009KT 30/12 A3001 RMK A01 T03000118  RH  033%=      5-min Rain = 0
KWT1 161838Z 13010KT 30/12 A3001 RMK A01 T03000119  RH  033%=      5-min Rain = 0
KWT1 161839Z 12009KT 30/12 A3001 RMK A01 T03020123  RH  033%=      5-min Rain = 0
KWT1 161840Z 12010KT 31/12 A3001 RMK A01 T03050118  RH  032%=      5-min Rain = 0
KWT1 161841Z 14010KT 31/12 A3001 RMK A01 T03060122  RH  032%=      5-min Rain = 0
KWT1 161842Z 10010KT 31/13 A3001 RMK A01 T03060130  RH  034%=      5-min Rain = 0
KWT1 161843Z 09013KT 30/15 A3001 RMK A01 T03020148  RH  039%=      5-min Rain = 0
KWT1 161844Z 08010KT 30/15 A3001 RMK A01 T02960148  RH  041%=      5-min Rain = 0
KWT1 161845Z 10010KT 29/15 A3001 RMK A01 T02930147  RH  041%=      5-min Rain = 0
KWT1 161846Z 09009KT 29/15 A3001 RMK A01 T02920151  RH  042%=      5-min Rain = 0
KWT1 161847Z 10010KT 29/15 A3001 RMK A01 T02940150  RH  042%=      5-min Rain = 0
KWT1 161848Z 11011KT 30/15 A3001 RMK A01 T02960148  RH  041%=      5-min Rain = 0
KWT1 161849Z 10011KT 30/14 A3001 RMK A01 T02960144  RH  039%=      5-min Rain = 0
KWT1 161850Z 10009KT 29/15 A3001 RMK A01 T02940146  RH  040%=      5-min Rain = 0
KWT1 161851Z 10009KT 29/15 A3001 RMK A01 T02940147  RH  041%=      5-min Rain = 0
KWT1 161852Z 08011KT 29/15 A3001 RMK A01 T02940150  RH  042%=      5-min Rain = 0
KWT1 161853Z 09013G18KT 29/15 A3001 RMK A01 T02920149  RH  042%=      5-min Rain = 0
KWT1 161854Z 10011KT 29/15 A3001 RMK A01 T02900152  RH  043%=      5-min Rain = 0
KWT1 161855Z 08011KT 29/16 A3001 RMK A01 T02900155  RH  044%=      5-min Rain = 0
KWT1 161856Z 07011KT 29/15 A3001 RMK A01 T02890154  RH  044%=      5-min Rain = 0
KWT1 161857Z 07011KT 29/16 A3001 RMK A01 T02870155  RH  045%=      5-min Rain = 0
KWT1 161858Z 09011KT 29/15 A3001 RMK A01 T02860153  RH  044%=      5-min Rain = 0
KWT1 161859Z 09011KT 29/15 A3001 RMK A01 T02860146  RH  043%=      5-min Rain = 0
KWT1 161900Z 08011KT 29/15 A3001 RMK A01 T02870151  RH  043%=      5-min Rain = 0
KWT1 161901Z 09011KT 29/16 A30 RMK A01 T02920157  RH  044%=      5-min Rain = 0
KWT1 161902Z 08011KT 30/16 A30 RMK A01 T02950159  RH  044%=      5-min Rain = 0
KWT1 161903Z 08009KT 30/16 A30 RMK A01 T02960159  RH  044%=      5-min Rain = 0
KWT1 161904Z 10011KT 30/16 A30 RMK A01 T02950157  RH  043%=      5-min Rain = 0
KWT1 161905Z 10011KT 30/16 A30 RMK A01 T02950158  RH  044%=      5-min Rain = 0
KWT1 161906Z 10010KT 30/16 A30 RMK A01 T02970159  RH  043%=      5-min Rain = 0
KWT1 161907Z 11010KT 30/16 A30 RMK A01 T03010159  RH  042%=      5-min Rain = 0
KWT1 161908Z 10010KT 30/16 A30 RMK A01 T03000160  RH  043%=      5-min Rain = 0
KWT1 161909Z 09007KT 30/16 A30 RMK A01 T03010164  RH  044%=      5-min Rain = 0
KWT1 161910Z 08008KT 30/16 A30 RMK A01 T03010159  RH  042%=      5-min Rain = 0
KWT1 161911Z 08011KT 30/16 A30 RMK A01 T02990163  RH  044%=      5-min Rain = 0
KWT1 161912Z 08009KT 30/16 A30 RMK A01 T02990161  RH  043%=      5-min Rain = 0
KWT1 161913Z 08009KT 30/16 A30 RMK A01 T02990161  RH  043%=      5-min Rain = 0
KWT1 161914Z 10010KT 30/16 A30 RMK A01 T02970160  RH  044%=      5-min Rain = 0
KWT1 161915Z 10010KT 30/16 A30 RMK A01 T02960156  RH  043%=      5-min Rain = 0
KWT1 161916Z 10011KT 29/16 A30 RMK A01 T02940160  RH  044%=      5-min Rain = 0
KWT1 161917Z 09009KT 29/16 A30 RMK A01 T02930156  RH  044%=      5-min Rain = 0
KWT1 161918Z 10008KT 29/16 A30 RMK A01 T02920155  RH  043%=      5-min Rain = 0
KWT1 161919Z 09009KT 29/16 A30 RMK A01 T02910155  RH  044%=      5-min Rain = 0
KWT1 161920Z 08010G15KT 29/16 A30 RMK A01 T02920159  RH  045%=      5-min Rain = 0
KWT1 161921Z 07010KT 29/15 A30 RMK A01 T02940154  RH  043%=      5-min Rain = 0
KWT1 161922Z 06010KT 30/16 A30 RMK A01 T02950155  RH  043%=      5-min Rain = 0
KWT1 161923Z 05009KT 30/15 A30 RMK A01 T02950154  RH  042%=      5-min Rain = 0
KWT1 161924Z 06007KT 30/16 A30 RMK A01 T02950155  RH  043%=      5-min Rain = 0
KWT1 161925Z 07010KT 30/16 A30 RMK A01 T02950156  RH  043%=      5-min Rain = 0
KWT1 161926Z 08008KT 30/16 A30 RMK A01 T02960158  RH  043%=      5-min Rain = 0
KWT1 161927Z 07007KT 30/16 A30 RMK A01 T02970155  RH  042%=      5-min Rain = 0
KWT1 161928Z 07008KT 30/16 A30 RMK A01 T02980156  RH  042%=      5-min Rain = 0
KWT1 161929Z 08008KT 30/16 A30 RMK A01 T02980156  RH  042%=      5-min Rain = 0
KWT1 161930Z 11009KT 30/16 A30 RMK A01 T02990158  RH  043%=      5-min Rain = 0
KWT1 161931Z 14008KT 30/15 A30 RMK A01 T02990152  RH  041%=      5-min Rain = 0
KWT1 161932Z 13008KT 30/15 A30 RMK A01 T02980152  RH  041%=      5-min Rain = 0
KWT1 161933Z 13006KT 30/14 A2999 RMK A01 T02970144  RH  039%=      5-min Rain = 0
KWT1 161934Z 07005KT 29/15 A2999 RMK A01 T02940153  RH  042%=      5-min Rain = 0
KWT1 161935Z 09009G14KT 30/16 A2999 RMK A01 T02960155  RH  042%=      5-min Rain = 0
KWT1 161936Z 07009KT 30/16 A2999 RMK A01 T02980160  RH  043%=      5-min Rain = 0
KWT1 161937Z 07008KT 30/16 A2999 RMK A01 T03000158  RH  042%=      5-min Rain = 0
KWT1 161938Z 06009KT 30/16 A2999 RMK A01 T03010164  RH  044%=      5-min Rain = 0
KWT1 161939Z 07012KT 30/16 A2999 RMK A01 T03030162  RH  043%=      5-min Rain = 0
KWT1 161940Z 10011KT 30/16 A2999 RMK A01 T03030160  RH  042%=      5-min Rain = 0
KWT1 161941Z 10011KT 30/16 A2999 RMK A01 T03020156  RH  041%=      5-min Rain = 0
KWT1 161942Z 10010KT 30/16 A2999 RMK A01 T02990155  RH  042%=      5-min Rain = 0
KWT1 161943Z 09007KT 30/16 A2999 RMK A01 T02990159  RH  043%=      5-min Rain = 0
KWT1 161944Z 09008KT 30/16 A2999 RMK A01 T03010160  RH  043%=      5-min Rain = 0
KWT1 161945Z 09008KT 30/16 A2999 RMK A01 T03030157  RH  041%=      5-min Rain = 0
KWT1 161946Z 08008KT 30/16 A2999 RMK A01 T03020158  RH  042%=      5-min Rain = 0
KWT1 161947Z 10008KT 30/16 A2999 RMK A01 T03030159  RH  042%=      5-min Rain = 0
KWT1 161948Z 09007G12KT 30/16 A2999 RMK A01 T03040157  RH  041%=      5-min Rain = 0
KWT1 161949Z 10011KT 30/16 A2999 RMK A01 T03040159  RH  042%=      5-min Rain = 0
KWT1 161950Z 10009KT 30/16 A2999 RMK A01 T03030158  RH  041%=      5-min Rain = 0
KWT1 161951Z 09008KT 30/16 A2998 RMK A01 T03000156  RH  042%=      5-min Rain = 0
KWT1 161952Z 10011KT 30/16 A2998 RMK A01 T02990158  RH  043%=      5-min Rain = 0
KWT1 161953Z 09009KT 30/15 A2998 RMK A01 T03000154  RH  041%=      5-min Rain = 0
KWT1 161954Z 09008KT 30/15 A2998 RMK A01 T03000153  RH  041%=      5-min Rain = 0
KWT1 161955Z 09014KT 30/16 A2998 RMK A01 T03000157  RH  042%=      5-min Rain = 0
KWT1 161956Z 10014KT 30/16 A2998 RMK A01 T03020157  RH  041%=      5-min Rain = 0
KWT1 161957Z 10010KT 30/15 A2998 RMK A01 T03040152  RH  040%=      5-min Rain = 0
KWT1 161958Z 11008KT 30/15 A2998 RMK A01 T03010153  RH  041%=      5-min Rain = 0
KWT1 161959Z 09008KT 30/16 A2998 RMK A01 T03010158  RH  042%=      5-min Rain = 0
KWT1 162000Z 10009KT 30/16 A2998 RMK A01 T03030157  RH  041%=      5-min Rain = 0
KWT1 162001Z 07013KT 30/15 A2998 RMK A01 T03030153  RH  040%=      5-min Rain = 0
KWT1 162002Z 07011KT 30/15 A2998 RMK A01 T03010154  RH  041%=      5-min Rain = 0
KWT1 162003Z 07011KT 30/15 A2998 RMK A01 T03010152  RH  041%=      5-min Rain = 0
KWT1 162004Z 09012KT 30/15 A2998 RMK A01 T03010154  RH  041%=      5-min Rain = 0
KWT1 162005Z 10012KT 30/15 A2998 RMK A01 T03020154  RH  041%=      5-min Rain = 0
KWT1 162006Z 10009KT 30/16 A2998 RMK A01 T03040155  RH  040%=      5-min Rain = 0
KWT1 162007Z 11011KT 31/16 A2998 RMK A01 T03050157  RH  041%=      5-min Rain = 0
KWT1 162008Z 10011KT 31/15 A2998 RMK A01 T03060151  RH  039%=      5-min Rain = 0
KWT1 162009Z 11011KT 31/15 A2998 RMK A01 T03070154  RH  040%=      5-min Rain = 0
KWT1 162010Z 12012KT 31/15 A2997 RMK A01 T03070153  RH  039%=      5-min Rain = 0
KWT1 162011Z 11011KT 31/15 A2997 RMK A01 T03070151  RH  039%=      5-min Rain = 0
KWT1 162012Z 09010KT 31/15 A2997 RMK A01 T03050152  RH  040%=      5-min Rain = 0
KWT1 162013Z 10012KT 30/15 A2997 RMK A01 T03040154  RH  040%=      5-min Rain = 0
KWT1 162014Z 10006KT 30/15 A2997 RMK A01 T03040149  RH  039%=      5-min Rain = 0
KWT1 162015Z 07009KT 30/15 A2997 RMK A01 T03030152  RH  040%=      5-min Rain = 0
KWT1 162016Z 08008KT 30/15 A2997 RMK A01 T03040153  RH  040%=      5-min Rain = 0
KWT1 162017Z 09008KT 31/16 A2997 RMK A01 T03060158  RH  041%=      5-min Rain = 0
KWT1 162018Z 11008KT 31/15 A2997 RMK A01 T03080147  RH  038%=      5-min Rain = 0
KWT1 162019Z 11007KT 31/15 A2997 RMK A01 T03080153  RH  039%=      5-min Rain = 0
KWT1 162020Z 10008G15KT 31/16 A2997 RMK A01 T03110156  RH  039%=      5-min Rain = 0
KWT1 162021Z 09011KT 31/15 A2997 RMK A01 T03130150  RH  037%=      5-min Rain = 0
KWT1 162022Z 10009KT 31/15 A2997 RMK A01 T03120149  RH  037%=      5-min Rain = 0
KWT1 162023Z 12009KT 31/14 A2997 RMK A01 T03110143  RH  036%=      5-min Rain = 0
KWT1 162024Z 10008KT 31/14 A2997 RMK A01 T03110144  RH  036%=      5-min Rain = 0
KWT1 162025Z 09010KT 31/15 A2997 RMK A01 T03100145  RH  037%=      5-min Rain = 0
KWT1 162026Z 07009KT 31/15 A2997 RMK A01 T03080150  RH  038%=      5-min Rain = 0
KWT1 162027Z 06007KT 31/15 A2997 RMK A01 T03080152  RH  039%=      5-min Rain = 0
KWT1 162028Z 07009KT 31/15 A2997 RMK A01 T03100153  RH  039%=      5-min Rain = 0
KWT1 162029Z 07010KT 31/15 A2997 RMK A01 T03110147  RH  037%=      5-min Rain = 0
KWT1 162030Z 06008KT 31/15 A2997 RMK A01 T03080146  RH  038%=      5-min Rain = 0
KWT1 162031Z 06009KT 31/15 A2997 RMK A01 T03060149  RH  039%=      5-min Rain = 0
KWT1 162032Z 08008KT 31/15 A2996 RMK A01 T03060152  RH  039%=      5-min Rain = 0
KWT1 162033Z 10009G14KT 31/15 A2996 RMK A01 T03070151  RH  039%=      5-min Rain = 0
KWT1 162034Z 13011KT 31/14 A2996 RMK A01 T03120139  RH  035%=      5-min Rain = 0
KWT1 162035Z 13014KT 32/13 A2996 RMK A01 T03150134  RH  033%=      5-min Rain = 0
KWT1 162036Z 14016KT 32/13 A2996 RMK A01 T03160133  RH  033%=      5-min Rain = 0
KWT1 162037Z 14012G17KT 32/13 A2996 RMK A01 T03170128  RH  032%=      5-min Rain = 0
KWT1 162038Z 14011KT 31/13 A2996 RMK A01 T03140128  RH  032%=      5-min Rain = 0
KWT1 162039Z 13011KT 31/13 A2996 RMK A01 T03140132  RH  033%=      5-min Rain = 0
KWT1 162040Z 13009KT 32/13 A2996 RMK A01 T03150130  RH  032%=      5-min Rain = 0
KWT1 162041Z 12008KT 32/13 A2996 RMK A01 T03160133  RH  033%=      5-min Rain = 0
KWT1 162042Z 12008KT 32/13 A2996 RMK A01 T03150129  RH  032%=      5-min Rain = 0
KWT1 162043Z 13009KT 32/13 A2996 RMK A01 T03160132  RH  033%=      5-min Rain = 0
KWT1 162044Z 14010KT 32/13 A2996 RMK A01 T03160128  RH  032%=      5-min Rain = 0
KWT1 162045Z 13008KT 32/13 A2996 RMK A01 T03150128  RH  032%=      5-min Rain = 0
KWT1 162046Z 16006KT 32/13 A2996 RMK A01 T03150132  RH  033%=      5-min Rain = 0
KWT1 162047Z 13008KT 32/13 A2996 RMK A01 T03180131  RH  032%=      5-min Rain = 0
KWT1 162048Z 15009KT 32/13 A2996 RMK A01 T03180132  RH  032%=      5-min Rain = 0
KWT1 162049Z 16009KT 32/13 A2996 RMK A01 T03190132  RH  032%=      5-min Rain = 0
KWT1 162050Z 15014KT 32/13 A2996 RMK A01 T03200133  RH  032%=      5-min Rain = 0
KWT1 162051Z 14011KT 32/13 A2996 RMK A01 T03190129  RH  031%=      5-min Rain = 0
KWT1 162052Z 14010KT 32/13 A2996 RMK A01 T03170133  RH  032%=      5-min Rain = 0
KWT1 162053Z 14009KT 32/13 A2996 RMK A01 T03170127  RH  031%=      5-min Rain = 0
KWT1 162054Z 14009KT 32/13 A2996 RMK A01 T03160133  RH  033%=      5-min Rain = 0
KWT1 162055Z 15011KT 32/14 A2996 RMK A01 T03180136  RH  033%=      5-min Rain = 0
KWT1 162056Z 14010KT 32/14 A2996 RMK A01 T03200135  RH  032%=      5-min Rain = 0
KWT1 162057Z 13009KT 32/13 A2996 RMK A01 T03210133  RH  032%=      5-min Rain = 0
KWT1 162058Z 14005KT 32/13 A2996 RMK A01 T03190132  RH  032%=      5-min Rain = 0
KWT1 162059Z 12005KT 32/14 A2995 RMK A01 T03180135  RH  033%=      5-min Rain = 0
KWT1 162100Z 16013KT 32/14 A2995 RMK A01 T03190137  RH  033%=      5-min Rain = 0
KWT1 162101Z 18011KT 32/13 A2995 RMK A01 T03200131  RH  032%=      5-min Rain = 0
KWT1 162102Z 16011G16KT 32/13 A2995 RMK A01 T03190132  RH  032%=      5-min Rain = 0
KWT1 162103Z 15012KT 32/13 A2995 RMK A01 T03180132  RH  032%=      5-min Rain = 0
KWT1 162104Z 14009KT 32/13 A2995 RMK A01 T03180130  RH  032%=      5-min Rain = 0
KWT1 162105Z 14008KT 32/13 A2995 RMK A01 T03170133  RH  033%=      5-min Rain = 0
KWT1 162106Z 16007KT 32/13 A2995 RMK A01 T03180133  RH  032%=      5-min Rain = 0
KWT1 162107Z 16006KT 32/14 A2995 RMK A01 T03170135  RH  033%=      5-min Rain = 0
KWT1 162108Z 17007KT 32/13 A2995 RMK A01 T03200133  RH  032%=      5-min Rain = 0
KWT1 162109Z 17007KT 32/13 A2995 RMK A01 T03200127  RH  031%=      5-min Rain = 0
KWT1 162110Z 15006KT 32/13 A2995 RMK A01 T03170132  RH  032%=      5-min Rain = 0
KWT1 162111Z 15009KT 32/13 A2995 RMK A01 T03180134  RH  033%=      5-min Rain = 0
KWT1 162112Z 14009KT 32/13 A2995 RMK A01 T03190129  RH  031%=      5-min Rain = 0
KWT1 162113Z 12011KT 32/13 A2995 RMK A01 T03180131  RH  032%=      5-min Rain = 0
KWT1 162114Z 15014KT 32/14 A2995 RMK A01 T03180135  RH  033%=      5-min Rain = 0
KWT1 162115Z 15012KT 32/13 A2995 RMK A01 T03180128  RH  031%=      5-min Rain = 0
KWT1 162116Z 14005KT 32/13 A2995 RMK A01 T03160128  RH  032%=      5-min Rain = 0
KWT1 162117Z 16008G14KT 32/13 A2995 RMK A01 T03150133  RH  033%=      5-min Rain = 0
KWT1 162118Z 17007KT 32/13 A2995 RMK A01 T03160126  RH  031%=      5-min Rain = 0
KWT1 162119Z 17007KT 32/13 A2995 RMK A01 T03150128  RH  032%=      5-min Rain = 0
KWT1 162120Z 15007KT 32/13 A2995 RMK A01 T03150134  RH  033%=      5-min Rain = 0
KWT1 162121Z 14007KT 32/13 A2995 RMK A01 T03170131  RH  032%=      5-min Rain = 0
KWT1 162122Z 13005KT 32/13 A2995 RMK A01 T03170127  RH  031%=      5-min Rain = 0
KWT1 162123Z 14011KT 32/13 A2995 RMK A01 T03170134  RH  033%=      5-min Rain = 0
KWT1 162124Z 15012KT 32/14 A2995 RMK A01 T03180137  RH  033%=      5-min Rain = 0
KWT1 162125Z 17011KT 32/14 A2995 RMK A01 T03180136  RH  033%=      5-min Rain = 0
KWT1 162126Z 15011KT 32/14 A2994 RMK A01 T03170137  RH  033%=      5-min Rain = 0
KWT1 162127Z 14009KT 32/14 A2995 RMK A01 T03170135  RH  033%=      5-min Rain = 0
KWT1 162128Z 13011KT 32/14 A2995 RMK A01 T03180138  RH  034%=      5-min Rain = 0
KWT1 162129Z 14011KT 32/13 A2994 RMK A01 T03190132  RH  032%=      5-min Rain = 0
KWT1 162130Z 14011KT 32/13 A2994 RMK A01 T03180132  RH  032%=      5-min Rain = 0
KWT1 162131Z 13010KT 32/13 A2994 RMK A01 T03170134  RH  033%=      5-min Rain = 0
KWT1 162132Z 12012KT 32/13 A2994 RMK A01 T03170133  RH  033%=      5-min Rain = 0
KWT1 162133Z 12009KT 32/13 A2994 RMK A01 T03160133  RH  033%=      5-min Rain = 0
KWT1 162134Z 12010KT 32/13 A2994 RMK A01 T03160134  RH  033%=      5-min Rain = 0
KWT1 162135Z 12007KT 32/14 A2994 RMK A01 T03160136  RH  033%=      5-min Rain = 0
KWT1 162136Z 14008KT 32/14 A2994 RMK A01 T03170137  RH  034%=      5-min Rain = 0
KWT1 162137Z 15008KT 32/13 A2994 RMK A01 T03190132  RH  032%=      5-min Rain = 0
KWT1 162138Z 15007KT 32/14 A2994 RMK A01 T03200138  RH  033%=      5-min Rain = 0
KWT1 162139Z 14013G18KT 32/14 A2994 RMK A01 T03200138  RH  033%=      5-min Rain = 0
KWT1 162140Z 14015G20KT 32/13 A2994 RMK A01 T03210134  RH  032%=      5-min Rain = 0
KWT1 162141Z 15008KT 32/13 A2994 RMK A01 T03180134  RH  033%=      5-min Rain = 0
KWT1 162142Z 15008KT 32/14 A2994 RMK A01 T03180138  RH  034%=      5-min Rain = 0
KWT1 162143Z 14009KT 32/14 A2994 RMK A01 T03190138  RH  033%=      5-min Rain = 0
KWT1 162144Z 12007KT 32/14 A2994 RMK A01 T03200137  RH  033%=      5-min Rain = 0
KWT1 162145Z 11006KT 32/14 A2994 RMK A01 T03200136  RH  033%=      5-min Rain = 0
KWT1 162146Z 14007KT 32/14 A2994 RMK A01 T03200141  RH  034%=      5-min Rain = 0
KWT1 162147Z 14007KT 32/14 A2994 RMK A01 T03220141  RH  033%=      5-min Rain = 0
KWT1 162148Z 15007KT 32/14 A2994 RMK A01 T03230138  RH  032%=      5-min Rain = 0
KWT1 162149Z 15011KT 32/14 A2994 RMK A01 T03230139  RH  033%=      5-min Rain = 0
KWT1 162150Z 15009KT 32/14 A2994 RMK A01 T03230137  RH  032%=      5-min Rain = 0
KWT1 162151Z 14005KT 32/14 A2994 RMK A01 T03220136  RH  032%=      5-min Rain = 0
KWT1 162152Z 12007KT 32/15 A2994 RMK A01 T03220145  RH  034%=      5-min Rain = 0
KWT1 162153Z 12008G14KT 33/14 A2994 RMK A01 T03250143  RH  033%=      5-min Rain = 0
KWT1 162154Z 13013KT 33/14 A2994 RMK A01 T03250136  RH  032%=      5-min Rain = 0
KWT1 162155Z 12009KT 32/13 A2994 RMK A01 T03210130  RH  031%=      5-min Rain = 0
KWT1 162156Z 13007KT 32/13 A2994 RMK A01 T03190131  RH  032%=      5-min Rain = 0
KWT1 162157Z 12007KT 32/13 A2994 RMK A01 T03180133  RH  032%=      5-min Rain = 0
KWT1 162158Z 10008KT 32/13 A2994 RMK A01 T03180133  RH  032%=      5-min Rain = 0
KWT1 162159Z 13012KT 32/13 A2994 RMK A01 T03180134  RH  033%=      5-min Rain = 0
KWT1 162200Z 14012KT 32/14 A2994 RMK A01 T03180135  RH  033%=      5-min Rain = 0
KWT1 162201Z 14009KT 32/14 A2994 RMK A01 T03190135  RH  033%=      5-min Rain = 0
KWT1 162202Z 15008KT 32/14 A2994 RMK A01 T03190137  RH  033%=      5-min Rain = 0
KWT1 162203Z 15008G13KT 32/14 A2994 RMK A01 T03190140  RH  034%=      5-min Rain = 0
KWT1 162204Z 13011KT 32/14 A2994 RMK A01 T03220139  RH  033%=      5-min Rain = 0
KWT1 162205Z 12009KT 32/14 A2994 RMK A01 T03220135  RH  032%=      5-min Rain = 0
KWT1 162206Z 12009KT 32/13 A2994 RMK A01 T03200134  RH  032%=      5-min Rain = 0
KWT1 162207Z 13008KT 32/13 A2994 RMK A01 T03180133  RH  032%=      5-min Rain = 0
KWT1 162208Z 12006KT 32/13 A2993 RMK A01 T03170131  RH  032%=      5-min Rain = 0
KWT1 162209Z 08006KT 32/14 A2993 RMK A01 T03170138  RH  034%=      5-min Rain = 0
KWT1 162210Z 11005KT 32/13 A2993 RMK A01 T03180133  RH  032%=      5-min Rain = 0
KWT1 162211Z 11007G12KT 32/14 A2993 RMK A01 T03190137  RH  033%=      5-min Rain = 0
KWT1 162212Z 12010KT 32/14 A2993 RMK A01 T03200138  RH  033%=      5-min Rain = 0
KWT1 162213Z 12008KT 32/14 A2993 RMK A01 T03210135  RH  032%=      5-min Rain = 0
KWT1 162214Z 12008KT 32/14 A2993 RMK A01 T03210136  RH  033%=      5-min Rain = 0
KWT1 162215Z 11007KT 32/13 A2993 RMK A01 T03190133  RH  032%=      5-min Rain = 0
KWT1 162216Z 12005KT 32/13 A2993 RMK A01 T03180133  RH  033%=      5-min Rain = 0
KWT1 162217Z 12009G14KT 32/14 A2993 RMK A01 T03180139  RH  034%=      5-min Rain = 0
KWT1 162218Z 10010KT 32/14 A2993 RMK A01 T03190136  RH  033%=      5-min Rain = 0
KWT1 162219Z 10006KT 32/14 A2993 RMK A01 T03180136  RH  033%=      5-min Rain = 0
KWT1 162220Z 10006KT 32/14 A2993 RMK A01 T03180137  RH  033%=      5-min Rain = 0
KWT1 162221Z 13008KT 32/14 A2993 RMK A01 T03180138  RH  034%=      5-min Rain = 0
KWT1 162222Z 14008KT 32/14 A2993 RMK A01 T03190139  RH  033%=      5-min Rain = 0
KWT1 162223Z 15011G16KT 32/14 A2993 RMK A01 T03200139  RH  033%=      5-min Rain = 0
KWT1 162224Z 15012KT 32/14 A2993 RMK A01 T03210140  RH  033%=      5-min Rain = 0
KWT1 162225Z 13009KT 32/14 A2993 RMK A01 T03210143  RH  034%=      5-min Rain = 0
KWT1 162226Z 13011KT 32/14 A2993 RMK A01 T03220137  RH  033%=      5-min Rain = 0
KWT1 162227Z 13010KT 32/14 A2993 RMK A01 T03200137  RH  033%=      5-min Rain = 0
KWT1 162228Z 11010KT 32/14 A2993 RMK A01 T03200138  RH  033%=      5-min Rain = 0
KWT1 162229Z 10010KT 32/14 A2993 RMK A01 T03200139  RH  034%=      5-min Rain = 0
KWT1 162230Z 10008KT 32/14 A2993 RMK A01 T03190140  RH  034%=      5-min Rain = 0
KWT1 162231Z 12011KT 32/14 A2993 RMK A01 T03190138  RH  033%=      5-min Rain = 0
KWT1 162232Z 11009KT 32/14 A2993 RMK A01 T03190140  RH  034%=      5-min Rain = 0
KWT1 162233Z 13010KT 32/14 A2993 RMK A01 T03190143  RH  035%=      5-min Rain = 0
KWT1 162234Z 12008KT 32/14 A2993 RMK A01 T03190138  RH  033%=      5-min Rain = 0
KWT1 162235Z 11007KT 32/14 A2993 RMK A01 T03180137  RH  033%=      5-min Rain = 0
KWT1 162236Z 12005KT 32/13 A2993 RMK A01 T03170134  RH  033%=      5-min Rain = 0
KWT1 162237Z 12005KT 32/13 A2993 RMK A01 T03150132  RH  033%=      5-min Rain = 0
KWT1 162238Z 10007KT 32/14 A2993 RMK A01 T03150140  RH  035%=      5-min Rain = 0
KWT1 162239Z 13010KT 32/14 A2993 RMK A01 T03170141  RH  034%=      5-min Rain = 0
KWT1 162240Z 13011G16KT 32/14 A2993 RMK A01 T03200139  RH  033%=      5-min Rain = 0
KWT1 162241Z 13010KT 32/14 A2993 RMK A01 T03200137  RH  033%=      5-min Rain = 0
KWT1 162242Z 14011KT 32/14 A2993 RMK A01 T03190137  RH  033%=      5-min Rain = 0
KWT1 162243Z 14011KT 32/14 A2993 RMK A01 T03190137  RH  033%=      5-min Rain = 0
KWT1 162244Z 15006KT 32/13 A2992 RMK A01 T03180133  RH  032%=      5-min Rain = 0
KWT1 162245Z 13009KT 32/14 A2992 RMK A01 T03170136  RH  033%=      5-min Rain = 0
KWT1 162246Z 14009KT 32/14 A2992 RMK A01 T03170137  RH  034%=      5-min Rain = 0
KWT1 162247Z 14008KT 32/14 A2992 RMK A01 T03170140  RH  034%=      5-min Rain = 0
KWT1 162248Z 13006KT 32/14 A2992 RMK A01 T03180138  RH  033%=      5-min Rain = 0
KWT1 162249Z 11006KT 32/14 A2992 RMK A01 T03180138  RH  034%=      5-min Rain = 0
KWT1 162250Z 08007KT 32/14 A2992 RMK A01 T03180135  RH  033%=      5-min Rain = 0
KWT1 162251Z 08007KT 32/14 A2992 RMK A01 T03170137  RH  034%=      5-min Rain = 0
KWT1 162252Z 10008KT 32/14 A2992 RMK A01 T03180138  RH  033%=      5-min Rain = 0
KWT1 162253Z 13009KT 32/14 A2992 RMK A01 T03190138  RH  033%=      5-min Rain = 0
KWT1 162254Z 14009KT 32/14 A2992 RMK A01 T03200140  RH  034%=      5-min Rain = 0
KWT1 162255Z 14008KT 32/13 A2992 RMK A01 T03210134  RH  032%=      5-min Rain = 0
KWT1 162256Z 13009KT 32/14 A2992 RMK A01 T03200135  RH  033%=      5-min Rain = 0
KWT1 162257Z 15007KT 32/13 A2992 RMK A01 T03190134  RH  032%=      5-min Rain = 0
KWT1 162258Z 13005KT 32/13 A2992 RMK A01 T03190132  RH  032%=      5-min Rain = 0
KWT1 162259Z 11008KT 32/14 A2992 RMK A01 T03190135  RH  033%=      5-min Rain = 0
KWT1 162300Z 10008KT 32/13 A2992 RMK A01 T03190132  RH  032%=      5-min Rain = 0
KWT1 162301Z 10008KT 32/13 A2992 RMK A01 T03180130  RH  032%=      5-min Rain = 0
KWT1 162302Z 09008KT 32/13 A2992 RMK A01 T03160131  RH  032%=      5-min Rain = 0
KWT1 162303Z 09008KT 32/13 A2992 RMK A01 T03160133  RH  033%=      5-min Rain = 0
KWT1 162304Z 09009KT 32/13 A2992 RMK A01 T03170132  RH  032%=      5-min Rain = 0
KWT1 162305Z 09006KT 32/13 A2992 RMK A01 T03160130  RH  032%=      5-min Rain = 0
KWT1 162306Z 09005KT 32/13 A2992 RMK A01 T03160134  RH  033%=      5-min Rain = 0
KWT1 162307Z 11009KT 32/14 A2992 RMK A01 T03170137  RH  034%=      5-min Rain = 0
KWT1 162308Z 11008KT 32/14 A2992 RMK A01 T03180137  RH  033%=      5-min Rain = 0
KWT1 162309Z 13009KT 32/14 A2992 RMK A01 T03190138  RH  033%=      5-min Rain = 0
KWT1 162310Z 13012KT 32/14 A2991 RMK A01 T03190136  RH  033%=      5-min Rain = 0
KWT1 162311Z 12010KT 32/14 A2991 RMK A01 T03190137  RH  033%=      5-min Rain = 0
KWT1 162312Z 13012KT 32/14 A2991 RMK A01 T03170136  RH  033%=      5-min Rain = 0
KWT1 162313Z 13009KT 32/14 A2991 RMK A01 T03170136  RH  033%=      5-min Rain = 0
KWT1 162314Z 13009KT 32/14 A2991 RMK A01 T03170140  RH  034%=      5-min Rain = 0
KWT1 162315Z 12010KT 32/14 A2991 RMK A01 T03170136  RH  033%=      5-min Rain = 0
KWT1 162316Z 10010KT 32/14 A2991 RMK A01 T03170138  RH  034%=      5-min Rain = 0
KWT1 162317Z 12008KT 32/14 A2991 RMK A01 T03170142  RH  035%=      5-min Rain = 0
KWT1 162318Z 12009KT 32/14 A2991 RMK A01 T03180138  RH  034%=      5-min Rain = 0
KWT1 162319Z 11008KT 32/14 A2991 RMK A01 T03190139  RH  034%=      5-min Rain = 0
KWT1 162320Z 11009KT 32/14 A2991 RMK A01 T03180137  RH  033%=      5-min Rain = 0
KWT1 162321Z 10010KT 32/14 A2991 RMK A01 T03170137  RH  033%=      5-min Rain = 0
KWT1 162322Z 11009KT 32/14 A2991 RMK A01 T03160138  RH  034%=      5-min Rain = 0
KWT1 162323Z 11009KT 32/14 A2991 RMK A01 T03160138  RH  034%=      5-min Rain = 0
KWT1 162324Z 12009KT 32/14 A2991 RMK A01 T03170140  RH  034%=      5-min Rain = 0
KWT1 162325Z 12009KT 32/14 A2991 RMK A01 T03170138  RH  034%=      5-min Rain = 0
KWT1 162326Z 12011KT 32/14 A2991 RMK A01 T03180139  RH  034%=      5-min Rain = 0
KWT1 162327Z 14010KT 32/14 A2991 RMK A01 T03180136  RH  033%=      5-min Rain = 0
KWT1 162328Z 15009KT 32/14 A2991 RMK A01 T03170136  RH  033%=      5-min Rain = 0
KWT1 162329Z 13007KT 32/14 A2991 RMK A01 T03170138  RH  034%=      5-min Rain = 0
KWT1 162330Z 12006KT 32/14 A2991 RMK A01 T03170142  RH  035%=      5-min Rain = 0
KWT1 162331Z 11009KT 32/15 A2991 RMK A01 T03180145  RH  035%=      5-min Rain = 0
KWT1 162332Z 12010KT 32/14 A2991 RMK A01 T03180142  RH  034%=      5-min Rain = 0
KWT1 162333Z 13008KT 32/14 A2991 RMK A01 T03170140  RH  034%=      5-min Rain = 0
KWT1 162334Z 14009KT 32/14 A2991 RMK A01 T03170141  RH  034%=      5-min Rain = 0
KWT1 162335Z 14009KT 32/14 A2991 RMK A01 T03170142  RH  035%=      5-min Rain = 0
KWT1 162336Z 13008KT 32/15 A2991 RMK A01 T03170146  RH  035%=      5-min Rain = 0
KWT1 162337Z 13010KT 32/14 A2991 RMK A01 T03170142  RH  034%=      5-min Rain = 0
KWT1 162338Z 13007KT 32/14 A2991 RMK A01 T03160141  RH  035%=      5-min Rain = 0
KWT1 162339Z 11009G15KT 32/15 A2991 RMK A01 T03150145  RH  036%=      5-min Rain = 0
KWT1 162340Z 10012KT 32/15 A2991 RMK A01 T03160146  RH  036%=      5-min Rain = 0
KWT1 162341Z 10011KT 32/15 A2991 RMK A01 T03150145  RH  036%=      5-min Rain = 0
KWT1 162342Z 11010KT 31/14 A2991 RMK A01 T03130143  RH  036%=      5-min Rain = 0
KWT1 162343Z 11009KT 31/15 A2991 RMK A01 T03120145  RH  036%=      5-min Rain = 0
KWT1 162344Z 11009KT 31/15 A2991 RMK A01 T03120146  RH  036%=      5-min Rain = 0
KWT1 162345Z 11008KT 31/15 A2991 RMK A01 T03130146  RH  036%=      5-min Rain = 0
KWT1 162346Z 11008KT 31/15 A2991 RMK A01 T03140148  RH  037%=      5-min Rain = 0
KWT1 162347Z 10006KT 32/15 A2991 RMK A01 T03150148  RH  036%=      5-min Rain = 0
KWT1 162348Z 11006KT 32/15 A2991 RMK A01 T03150145  RH  036%=      5-min Rain = 0
KWT1 162349Z 11007KT 32/15 A2991 RMK A01 T03150149  RH  037%=      5-min Rain = 0
KWT1 162350Z 12007KT 32/15 A2991 RMK A01 T03150148  RH  036%=      5-min Rain = 0
KWT1 162351Z 11007KT 32/15 A2991 RMK A01 T03160147  RH  036%=      5-min Rain = 0
KWT1 162352Z 11011KT 32/14 A2991 RMK A01 T03160144  RH  035%=      5-min Rain = 0
KWT1 162353Z 10010KT 31/14 A2991 RMK A01 T03140143  RH  035%=      5-min Rain = 0
KWT1 162354Z 11010KT 31/15 A2991 RMK A01 T03130146  RH  036%=      5-min Rain = 0
KWT1 162355Z 12011KT 31/15 A2991 RMK A01 T03120147  RH  037%=      5-min Rain = 0
KWT1 162356Z 12010KT 31/15 A299 RMK A01 T03120148  RH  037%=      5-min Rain = 0
KWT1 162357Z 11009KT 31/15 A2991 RMK A01 T03120152  RH  038%=      5-min Rain = 0
KWT1 162358Z 10012KT 31/15 A2991 RMK A01 T03130149  RH  037%=      5-min Rain = 0
KWT1 162359Z 09012KT 31/15 A2991 RMK A01 T03130151  RH  038%=      5-min Rain = 0
KWT1 170000Z 09010KT 31/15 A2991 RMK A01 T03120153  RH  038%=      5-min Rain = 0
KWT1 170001Z 09008KT 31/16 A2991 RMK A01 T03100156  RH  039%=      5-min Rain = 0
KWT1 170002Z 10010KT 31/15 A2991 RMK A01 T03100154  RH  039%=      5-min Rain = 0
KWT1 170003Z 10011KT 31/15 A2991 RMK A01 T03090154  RH  039%=      5-min Rain = 0
KWT1 170004Z 10010KT 31/15 A2991 RMK A01 T03090152  RH  039%=      5-min Rain = 0
KWT1 170005Z 10010KT 31/15 A2991 RMK A01 T03080150  RH  038%=      5-min Rain = 0
KWT1 170006Z 10010KT 31/15 A2991 RMK A01 T03080149  RH  038%=      5-min Rain = 0
KWT1 170007Z 10011KT 31/15 A2991 RMK A01 T03090146  RH  037%=      5-min Rain = 0
KWT1 170008Z 09015KT 31/15 A2991 RMK A01 T03080150  RH  038%=      5-min Rain = 0
KWT1 170009Z 08012KT 31/15 A2991 RMK A01 T03060152  RH  039%=      5-min Rain = 0
KWT1 170010Z 08013G18KT 30/15 A2991 RMK A01 T03040153  RH  040%=      5-min Rain = 0
KWT1 170011Z 08014KT 30/15 A2991 RMK A01 T03030150  RH  039%=      5-min Rain = 0
KWT1 170012Z 09013KT 30/15 A2991 RMK A01 T03020152  RH  040%=      5-min Rain = 0
KWT1 170013Z 09015KT 30/15 A2991 RMK A01 T03020152  RH  040%=      5-min Rain = 0
KWT1 170014Z 08015KT 30/15 A2991 RMK A01 T03010151  RH  040%=      5-min Rain = 0
KWT1 170015Z 08015KT 30/15 A2991 RMK A01 T03010149  RH  040%=      5-min Rain = 0
KWT1 170016Z 08011KT 30/15 A299 RMK A01 T03000150  RH  040%=      5-min Rain = 0
KWT1 170017Z 06012KT 30/15 A2991 RMK A01 T03000152  RH  041%=      5-min Rain = 0
KWT1 170018Z 08012KT 30/15 A299 RMK A01 T02990153  RH  041%=      5-min Rain = 0
KWT1 170019Z 08013KT 30/15 A299 RMK A01 T03000153  RH  041%=      5-min Rain = 0
KWT1 170020Z 09013KT 30/15 A2991 RMK A01 T02990150  RH  040%=      5-min Rain = 0
KWT1 170021Z 08011KT 30/15 A2991 RMK A01 T02990151  RH  041%=      5-min Rain = 0
KWT1 170022Z 08009KT 30/15 A2991 RMK A01 T02990153  RH  041%=      5-min Rain = 0
KWT1 170023Z 08013KT 30/15 A2991 RMK A01 T02990152  RH  041%=      5-min Rain = 0
KWT1 170024Z 08014KT 30/15 A2991 RMK A01 T02990152  RH  041%=      5-min Rain = 0
KWT1 170025Z 08014KT 30/15 A2991 RMK A01 T02990151  RH  041%=      5-min Rain = 0
KWT1 170026Z 07014G19KT 30/15 A2991 RMK A01 T02980152  RH  041%=      5-min Rain = 0
KWT1 170027Z 08015KT 30/15 A2991 RMK A01 T02970149  RH  040%=      5-min Rain = 0
KWT1 170028Z 07013KT 30/15 A2991 RMK A01 T02960149  RH  041%=      5-min Rain = 0
KWT1 170029Z 08011KT 30/15 A2991 RMK A01 T02960150  RH  041%=      5-min Rain = 0
KWT1 170030Z 08012KT 30/15 A2991 RMK A01 T02960151  RH  041%=      5-min Rain = 0
KWT1 170031Z 08010KT 30/15 A2991 RMK A01 T02960150  RH  041%=      5-min Rain = 0
KWT1 170032Z 08013KT 30/15 A2991 RMK A01 T02960150  RH  041%=      5-min Rain = 0
KWT1 170033Z 08012KT 30/15 A2991 RMK A01 T02960150  RH  041%=      5-min Rain = 0
KWT1 170034Z 08011KT 30/15 A2991 RMK A01 T02960152  RH  042%=      5-min Rain = 0
KWT1 170035Z 08013KT 30/15 A2991 RMK A01 T02950150  RH  041%=      5-min Rain = 0
KWT1 170036Z 08010KT 30/15 A2991 RMK A01 T02950151  RH  041%=      5-min Rain = 0
KWT1 170037Z 08010G16KT 30/15 A2991 RMK A01 T02950153  RH  042%=      5-min Rain = 0
KWT1 170038Z 08012KT 30/15 A2991 RMK A01 T02950153  RH  042%=      5-min Rain = 0
KWT1 170039Z 09012KT 29/15 A2991 RMK A01 T02940152  RH  042%=      5-min Rain = 0
KWT1 170040Z 08012KT 29/15 A2991 RMK A01 T02940152  RH  042%=      5-min Rain = 0
KWT1 170041Z 07012G18KT 29/15 A2991 RMK A01 T02940152  RH  042%=      5-min Rain = 0
KWT1 170042Z 08014KT 29/15 A2991 RMK A01 T02940150  RH  042%=      5-min Rain = 0
KWT1 170043Z 08012KT 29/15 A2991 RMK A01 T02940150  RH  042%=      5-min Rain = 0
KWT1 170044Z 09012KT 29/15 A2991 RMK A01 T02930152  RH  042%=      5-min Rain = 0
KWT1 170045Z 08011KT 29/15 A2991 RMK A01 T02930151  RH  042%=      5-min Rain = 0
KWT1 170046Z 09012KT 29/15 A2991 RMK A01 T02930151  RH  042%=      5-min Rain = 0
KWT1 170047Z 08013KT 29/15 A2991 RMK A01 T02920151  RH  042%=      5-min Rain = 0
KWT1 170048Z 09016KT 29/15 A2991 RMK A01 T02920150  RH  042%=      5-min Rain = 0
KWT1 170049Z 09015KT 29/15 A2991 RMK A01 T02920148  RH  042%=      5-min Rain = 0
KWT1 170050Z 09015KT 29/15 A2991 RMK A01 T02910147  RH  041%=      5-min Rain = 0
KWT1 170051Z 08014KT 29/15 A2991 RMK A01 T02910146  RH  041%=      5-min Rain = 0
KWT1 170052Z 08011KT 29/15 A2991 RMK A01 T02910148  RH  042%=      5-min Rain = 0
KWT1 170053Z 08012G17KT 29/15 A2991 RMK A01 T02910150  RH  042%=      5-min Rain = 0
KWT1 170054Z 08012KT 29/15 A2991 RMK A01 T02900149  RH  042%=      5-min Rain = 0
KWT1 170055Z 08011KT 29/15 A2991 RMK A01 T02900149  RH  042%=      5-min Rain = 0
KWT1 170056Z 08011KT 29/15 A2991 RMK A01 T02890150  RH  043%=      5-min Rain = 0
KWT1 170057Z 08009KT 29/15 A2991 RMK A01 T02890149  RH  043%=      5-min Rain = 0
KWT1 170058Z 08010KT 29/15 A2991 RMK A01 T02880149  RH  043%=      5-min Rain = 0
KWT1 170059Z 08010KT 29/15 A2991 RMK A01 T02880150  RH  043%=      5-min Rain = 0
KWT1 170100Z 08010KT 29/15 A2991 RMK A01 T02880150  RH  043%=      5-min Rain = 0
KWT1 170101Z 07010KT 29/15 A2991 RMK A01 T02880149  RH  043%=      5-min Rain = 0
KWT1 170102Z 08011KT 29/15 A2991 RMK A01 T02880149  RH  043%=      5-min Rain = 0
KWT1 170103Z 08009KT 29/15 A2991 RMK A01 T02870150  RH  043%=      5-min Rain = 0
KWT1 170104Z 08009KT 29/15 A2991 RMK A01 T02870151  RH  044%=      5-min Rain = 0
KWT1 170105Z 08012G17KT 29/15 A2991 RMK A01 T02860149  RH  043%=      5-min Rain = 0
KWT1 170106Z 08014KT 29/15 A2991 RMK A01 T02860147  RH  043%=      5-min Rain = 0
KWT1 170107Z 09011KT 29/15 A2991 RMK A01 T02850146  RH  043%=      5-min Rain = 0
KWT1 170108Z 08013KT 29/15 A2991 RMK A01 T02850147  RH  043%=      5-min Rain = 0
KWT1 170109Z 08013KT 29/15 A2991 RMK A01 T02850146  RH  043%=      5-min Rain = 0
KWT1 170110Z 08012KT 29/15 A2991 RMK A01 T02850145  RH  042%=      5-min Rain = 0
KWT1 170111Z 08011KT 29/15 A2991 RMK A01 T02850147  RH  043%=      5-min Rain = 0
KWT1 170112Z 08011KT 28/15 A2991 RMK A01 T02840146  RH  043%=      5-min Rain = 0
KWT1 170113Z 08011KT 28/15 A2991 RMK A01 T02840146  RH  043%=      5-min Rain = 0
KWT1 170114Z 08011KT 28/15 A2991 RMK A01 T02840146  RH  043%=      5-min Rain = 0
KWT1 170115Z 08011KT 28/15 A2991 RMK A01 T02840146  RH  043%=      5-min Rain = 0
KWT1 170116Z 08011KT 28/15 A2991 RMK A01 T02830145  RH  043%=      5-min Rain = 0
KWT1 170117Z 08012KT 28/15 A2991 RMK A01 T02830146  RH  043%=      5-min Rain = 0
KWT1 170118Z 08011KT 28/15 A2991 RMK A01 T02820146  RH  043%=      5-min Rain = 0
KWT1 170119Z 08010KT 28/15 A2991 RMK A01 T02820146  RH  043%=      5-min Rain = 0
KWT1 170120Z 08009KT 28/15 A2991 RMK A01 T02820146  RH  044%=      5-min Rain = 0
KWT1 170121Z 08009KT 28/15 A2991 RMK A01 T02810147  RH  044%=      5-min Rain = 0
KWT1 170122Z 08009KT 28/15 A2991 RMK A01 T02800147  RH  044%=      5-min Rain = 0
KWT1 170123Z 08009KT 28/15 A2991 RMK A01 T02800147  RH  044%=      5-min Rain = 0
KWT1 170124Z 08011KT 28/15 A2991 RMK A01 T02800147  RH  044%=      5-min Rain = 0
KWT1 170125Z 08009KT 28/15 A2991 RMK A01 T02790148  RH  045%=      5-min Rain = 0
KWT1 170126Z 08009KT 28/15 A2991 RMK A01 T02780147  RH  045%=      5-min Rain = 0
KWT1 170127Z 08011KT 28/15 A2991 RMK A01 T02780146  RH  045%=      5-min Rain = 0
KWT1 170128Z 08010KT 28/15 A2991 RMK A01 T02780146  RH  044%=      5-min Rain = 0
KWT1 170129Z 08010KT 28/15 A2991 RMK A01 T02780146  RH  044%=      5-min Rain = 0
KWT1 170130Z 08009KT 28/15 A2991 RMK A01 T02780147  RH  045%=      5-min Rain = 0
KWT1 170131Z 08011KT 28/15 A2991 RMK A01 T02780146  RH  045%=      5-min Rain = 0
KWT1 170132Z 08011KT 28/15 A2991 RMK A01 T02770146  RH  045%=      5-min Rain = 0
KWT1 170133Z 08011KT 28/14 A2991 RMK A01 T02770144  RH  044%=      5-min Rain = 0
KWT1 170134Z 08009KT 28/15 A2991 RMK A01 T02770145  RH  044%=      5-min Rain = 0
KWT1 170135Z 08010KT 28/15 A2991 RMK A01 T02770145  RH  044%=      5-min Rain = 0
KWT1 170136Z 08011KT 28/14 A2992 RMK A01 T02760144  RH  044%=      5-min Rain = 0
KWT1 170137Z 08009KT 28/14 A2992 RMK A01 T02760144  RH  044%=      5-min Rain = 0
KWT1 170138Z 09009KT 28/15 A2992 RMK A01 T02760145  RH  045%=      5-min Rain = 0
KWT1 170139Z 08009KT 28/15 A2992 RMK A01 T02750145  RH  045%=      5-min Rain = 0
KWT1 170140Z 08010KT 28/15 A2992 RMK A01 T02750145  RH  045%=      5-min Rain = 0
KWT1 170141Z 08009KT 28/15 A2992 RMK A01 T02750145  RH  045%=      5-min Rain = 0
KWT1 170142Z 08010KT 27/14 A2992 RMK A01 T02740144  RH  045%=      5-min Rain = 0
KWT1 170143Z 09011KT 27/14 A2992 RMK A01 T02740143  RH  045%=      5-min Rain = 0
KWT1 170144Z 09011KT 27/14 A2992 RMK A01 T02740143  RH  045%=      5-min Rain = 0
KWT1 170145Z 08010KT 27/14 A2992 RMK A01 T02740142  RH  044%=      5-min Rain = 0
KWT1 170146Z 09009KT 27/14 A2992 RMK A01 T02740143  RH  044%=      5-min Rain = 0
KWT1 170147Z 08010KT 27/14 A2992 RMK A01 T02740143  RH  045%=      5-min Rain = 0
KWT1 170148Z 08010KT 27/14 A2992 RMK A01 T02730142  RH  045%=      5-min Rain = 0
KWT1 170149Z 08010KT 27/14 A2992 RMK A01 T02730143  RH  045%=      5-min Rain = 0
KWT1 170150Z 08011KT 27/14 A2992 RMK A01 T02720142  RH  045%=      5-min Rain = 0
KWT1 170151Z 08011KT 27/14 A2992 RMK A01 T02720141  RH  045%=      5-min Rain = 0
KWT1 170152Z 08010KT 27/14 A2992 RMK A01 T02720142  RH  045%=      5-min Rain = 0
KWT1 170153Z 08009KT 27/14 A2992 RMK A01 T02720142  RH  045%=      5-min Rain = 0
KWT1 170154Z 08009KT 27/14 A2992 RMK A01 T02720142  RH  045%=      5-min Rain = 0
KWT1 170155Z 08011KT 27/14 A2992 RMK A01 T02710141  RH  045%=      5-min Rain = 0
KWT1 170156Z 09010KT 27/14 A2992 RMK A01 T02710141  RH  045%=      5-min Rain = 0
KWT1 170157Z 09010KT 27/14 A2992 RMK A01 T02710142  RH  045%=      5-min Rain = 0
KWT1 170158Z 09009KT 27/14 A2992 RMK A01 T02710141  RH  045%=      5-min Rain = 0
KWT1 170159Z 09008KT 27/14 A2992 RMK A01 T02700142  RH  045%=      5-min Rain = 0
KWT1 170200Z 09009KT 27/14 A2992 RMK A01 T02710142  RH  045%=      5-min Rain = 0
KWT1 170201Z 09008KT 27/14 A2993 RMK A01 T02700143  RH  046%=      5-min Rain = 0
KWT1 170202Z 09007KT 27/14 A2993 RMK A01 T02690144  RH  046%=      5-min Rain = 0
KWT1 170203Z 09008KT 27/15 A2992 RMK A01 T02680145  RH  047%=      5-min Rain = 0
KWT1 170204Z 09008KT 27/14 A2992 RMK A01 T02670144  RH  047%=      5-min Rain = 0
KWT1 170205Z 09008KT 27/14 A2992 RMK A01 T02660144  RH  047%=      5-min Rain = 0
KWT1 170206Z 10008KT 27/14 A2992 RMK A01 T02660144  RH  047%=      5-min Rain = 0
KWT1 170207Z 09008KT 27/14 A2992 RMK A01 T02660144  RH  047%=      5-min Rain = 0
KWT1 170208Z 09009KT 27/15 A2992 RMK A01 T02650145  RH  048%=      5-min Rain = 0
KWT1 170209Z 09009KT 27/14 A2992 RMK A01 T02650143  RH  047%=      5-min Rain = 0
KWT1 170210Z 09009KT 27/14 A2992 RMK A01 T02650144  RH  047%=      5-min Rain = 0
KWT1 170211Z 10009KT 26/15 A2992 RMK A01 T02640145  RH  048%=      5-min Rain = 0
KWT1 170212Z 09009KT 26/14 A2992 RMK A01 T02640144  RH  048%=      5-min Rain = 0
KWT1 170213Z 09009KT 26/14 A2992 RMK A01 T02640144  RH  048%=      5-min Rain = 0
KWT1 170214Z 09009KT 26/15 A2992 RMK A01 T02630145  RH  048%=      5-min Rain = 0
KWT1 170215Z 09009KT 26/15 A2993 RMK A01 T02630145  RH  048%=      5-min Rain = 0
KWT1 170216Z 09009KT 26/15 A2993 RMK A01 T02630145  RH  048%=      5-min Rain = 0
KWT1 170217Z 09009KT 26/15 A2993 RMK A01 T02620145  RH  048%=      5-min Rain = 0
KWT1 170218Z 08008KT 26/15 A2993 RMK A01 T02620146  RH  049%=      5-min Rain = 0
KWT1 170219Z 09007KT 26/15 A2993 RMK A01 T02610145  RH  049%=      5-min Rain = 0
KWT1 170220Z 09008KT 26/15 A2993 RMK A01 T02610146  RH  049%=      5-min Rain = 0
KWT1 170221Z 09008KT 26/15 A2993 RMK A01 T02610145  RH  049%=      5-min Rain = 0
KWT1 170222Z 08008KT 26/15 A2993 RMK A01 T02610145  RH  049%=      5-min Rain = 0
KWT1 170223Z 09008KT 26/14 A2993 RMK A01 T02610144  RH  049%=      5-min Rain = 0
KWT1 170224Z 09008KT 26/15 A2993 RMK A01 T02610145  RH  049%=      5-min Rain = 0
KWT1 170225Z 08008KT 26/15 A2993 RMK A01 T02610145  RH  049%=      5-min Rain = 0
KWT1 170226Z 09009KT 26/15 A2993 RMK A01 T02610146  RH  049%=      5-min Rain = 0
KWT1 170227Z 09007KT 26/15 A2993 RMK A01 T02600146  RH  049%=      5-min Rain = 0
KWT1 170228Z 09007KT 26/15 A2993 RMK A01 T02600146  RH  049%=      5-min Rain = 0
KWT1 170229Z 09007KT 26/15 A2993 RMK A01 T02590147  RH  050%=      5-min Rain = 0
KWT1 170230Z 09006KT 26/15 A2993 RMK A01 T02590147  RH  050%=      5-min Rain = 0
KWT1 170231Z 09007KT 26/15 A2993 RMK A01 T02580148  RH  051%=      5-min Rain = 0
KWT1 170232Z 10007KT 26/15 A2993 RMK A01 T02570149  RH  051%=      5-min Rain = 0
KWT1 170233Z 10007KT 26/15 A2993 RMK A01 T02560147  RH  051%=      5-min Rain = 0
KWT1 170234Z 10008KT 26/15 A2993 RMK A01 T02560147  RH  051%=      5-min Rain = 0
KWT1 170235Z 09008KT 26/15 A2993 RMK A01 T02570148  RH  051%=      5-min Rain = 0
KWT1 170236Z 10008KT 26/15 A2993 RMK A01 T02560148  RH  051%=      5-min Rain = 0
KWT1 170237Z 09008KT 26/15 A2993 RMK A01 T02560148  RH  051%=      5-min Rain = 0
KWT1 170238Z 09008KT 26/15 A2993 RMK A01 T02560148  RH  051%=      5-min Rain = 0
KWT1 170239Z 09008KT 26/15 A2993 RMK A01 T02560149  RH  051%=      5-min Rain = 0
KWT1 170240Z 09008KT 26/15 A2993 RMK A01 T02550148  RH  052%=      5-min Rain = 0
KWT1 170241Z 09008KT 26/15 A2993 RMK A01 T02550148  RH  051%=      5-min Rain = 0
KWT1 170242Z 09007KT 26/15 A2993 RMK A01 T02550149  RH  052%=      5-min Rain = 0
KWT1 170243Z 09008KT 26/15 A2993 RMK A01 T02550149  RH  052%=      5-min Rain = 0
KWT1 170244Z 09008KT 25/15 A2993 RMK A01 T02540149  RH  052%=      5-min Rain = 0
KWT1 170245Z 09008KT 25/15 A2993 RMK A01 T02530150  RH  053%=      5-min Rain = 0
KWT1 170246Z 09008KT 25/15 A2993 RMK A01 T02530150  RH  053%=      5-min Rain = 0
KWT1 170247Z 10008KT 25/15 A2993 RMK A01 T02530149  RH  053%=      5-min Rain = 0
KWT1 170248Z 10008KT 25/15 A2993 RMK A01 T02530150  RH  053%=      5-min Rain = 0
KWT1 170249Z 10007KT 25/15 A2993 RMK A01 T02520150  RH  053%=      5-min Rain = 0
KWT1 170250Z 10006KT 25/15 A2993 RMK A01 T02510149  RH  053%=      5-min Rain = 0
KWT1 170251Z 10007KT 25/15 A2993 RMK A01 T02510150  RH  053%=      5-min Rain = 0
KWT1 170252Z 10007KT 25/15 A2993 RMK A01 T02510150  RH  053%=      5-min Rain = 0
KWT1 170253Z 09007KT 25/15 A2993 RMK A01 T02510150  RH  054%=      5-min Rain = 0
KWT1 170254Z 09006KT 25/15 A2994 RMK A01 T02500151  RH  054%=      5-min Rain = 0
KWT1 170255Z 09006KT 25/15 A2994 RMK A01 T02500151  RH  054%=      5-min Rain = 0
KWT1 170256Z 09006KT 25/15 A2994 RMK A01 T02490150  RH  054%=      5-min Rain = 0
KWT1 170257Z 10006KT 25/15 A2994 RMK A01 T02490150  RH  054%=      5-min Rain = 0
KWT1 170258Z 09006KT 25/15 A2994 RMK A01 T02480151  RH  055%=      5-min Rain = 0
KWT1 170259Z 10005KT 25/15 A2994 RMK A01 T02480151  RH  055%=      5-min Rain = 0
KWT1 170300Z 09006KT 25/15 A2994 RMK A01 T02470150  RH  055%=      5-min Rain = 0
KWT1 170301Z 10006KT 25/15 A2994 RMK A01 T02470151  RH  055%=      5-min Rain = 0
KWT1 170302Z 10005KT 25/15 A2994 RMK A01 T02470151  RH  055%=      5-min Rain = 0
KWT1 170303Z 10006KT 25/15 A2994 RMK A01 T02460151  RH  055%=      5-min Rain = 0
KWT1 170304Z 10006KT 25/15 A2994 RMK A01 T02460152  RH  056%=      5-min Rain = 0
KWT1 170305Z 11005KT 25/15 A2994 RMK A01 T02460149  RH  055%=      5-min Rain = 0
KWT1 170306Z 11005KT 25/15 A2994 RMK A01 T02460150  RH  055%=      5-min Rain = 0
KWT1 170307Z 11005KT 25/15 A2994 RMK A01 T02470149  RH  055%=      5-min Rain = 0
KWT1 170308Z 12005KT 25/15 A2995 RMK A01 T02470149  RH  055%=      5-min Rain = 0
KWT1 170309Z 11005KT 25/15 A2995 RMK A01 T02460149  RH  054%=      5-min Rain = 0
KWT1 170310Z 12005KT 25/15 A2995 RMK A01 T02470149  RH  055%=      5-min Rain = 0
KWT1 170311Z 12005KT 25/15 A2995 RMK A01 T02470150  RH  055%=      5-min Rain = 0
KWT1 170312Z 12005KT 25/15 A2995 RMK A01 T02460150  RH  055%=      5-min Rain = 0
KWT1 170313Z 12004KT 25/15 A2995 RMK A01 T02460149  RH  055%=      5-min Rain = 0
KWT1 170314Z 11004KT 25/15 A2995 RMK A01 T02460150  RH  055%=      5-min Rain = 0
KWT1 170315Z 11004KT 25/15 A2995 RMK A01 T02460150  RH  055%=      5-min Rain = 0
KWT1 170316Z 10004KT 25/15 A2995 RMK A01 T02450150  RH  055%=      5-min Rain = 0
KWT1 170317Z 10004KT 25/15 A2995 RMK A01 T02450150  RH  056%=      5-min Rain = 0
KWT1 170318Z 10004KT 24/15 A2995 RMK A01 T02440150  RH  056%=      5-min Rain = 0
KWT1 170319Z 11004KT 24/15 A2995 RMK A01 T02430150  RH  056%=      5-min Rain = 0
KWT1 170320Z 11005KT 24/15 A2995 RMK A01 T02420150  RH  056%=      5-min Rain = 0
KWT1 170321Z 12005KT 24/15 A2995 RMK A01 T02420150  RH  056%=      5-min Rain = 0
KWT1 170322Z 12005KT 24/15 A2995 RMK A01 T02420150  RH  056%=      5-min Rain = 0
KWT1 170323Z 12005KT 24/15 A2995 RMK A01 T02420151  RH  057%=      5-min Rain = 0
KWT1 170324Z 13005KT 24/15 A2995 RMK A01 T02420150  RH  056%=      5-min Rain = 0
KWT1 170325Z 13005KT 24/15 A2995 RMK A01 T02420150  RH  056%=      5-min Rain = 0
KWT1 170326Z 13005KT 24/15 A2995 RMK A01 T02420150  RH  056%=      5-min Rain = 0
KWT1 170327Z 13005KT 24/15 A2995 RMK A01 T02410150  RH  057%=      5-min Rain = 0
KWT1 170328Z 12005KT 24/15 A2995 RMK A01 T02420150  RH  057%=      5-min Rain = 0
KWT1 170329Z 11005KT 24/15 A2995 RMK A01 T02420151  RH  057%=      5-min Rain = 0
KWT1 170330Z 10004KT 24/15 A2995 RMK A01 T02420150  RH  057%=      5-min Rain = 0
KWT1 170331Z 08004KT 24/15 A2996 RMK A01 T02410151  RH  057%=      5-min Rain = 0
KWT1 170332Z 08004KT 24/15 A2996 RMK A01 T02390152  RH  058%=      5-min Rain = 0
KWT1 170333Z 08004KT 24/15 A2996 RMK A01 T02370151  RH  058%=      5-min Rain = 0
KWT1 170334Z 08005KT 24/15 A2996 RMK A01 T02360151  RH  059%=      5-min Rain = 0
KWT1 170335Z 09005KT 24/15 A2996 RMK A01 T02360151  RH  059%=      5-min Rain = 0
KWT1 170336Z 09006KT 24/15 A2996 RMK A01 T02360150  RH  058%=      5-min Rain = 0
KWT1 170337Z 08005KT 24/15 A2996 RMK A01 T02370149  RH  058%=      5-min Rain = 0
KWT1 170338Z 09006KT 24/15 A2996 RMK A01 T02380150  RH  058%=      5-min Rain = 0
KWT1 170339Z 08006KT 24/15 A2996 RMK A01 T02390150  RH  057%=      5-min Rain = 0
KWT1 170340Z 08007KT 24/15 A2996 RMK A01 T02400149  RH  057%=      5-min Rain = 0
KWT1 170341Z 08007KT 24/15 A2996 RMK A01 T02390149  RH  057%=      5-min Rain = 0
KWT1 170342Z 08006KT 24/15 A2996 RMK A01 T02400149  RH  057%=      5-min Rain = 0
KWT1 170343Z 07007KT 24/15 A2996 RMK A01 T02400150  RH  057%=      5-min Rain = 0
KWT1 170344Z 07006KT 24/15 A2996 RMK A01 T02400150  RH  057%=      5-min Rain = 0
KWT1 170345Z 08006KT 24/15 A2996 RMK A01 T02400150  RH  057%=      5-min Rain = 0
KWT1 170346Z 08006KT 24/15 A2997 RMK A01 T02400149  RH  057%=      5-min Rain = 0
KWT1 170347Z 08007KT 24/15 A2997 RMK A01 T02400149  RH  057%=      5-min Rain = 0
KWT1 170348Z 09007KT 24/15 A2997 RMK A01 T02400149  RH  057%=      5-min Rain = 0
KWT1 170349Z 09007KT 24/15 A2997 RMK A01 T02410149  RH  056%=      5-min Rain = 0
KWT1 170350Z 09006KT 24/15 A2997 RMK A01 T02410149  RH  056%=      5-min Rain = 0
KWT1 170351Z 10006KT 24/15 A2997 RMK A01 T02410149  RH  057%=      5-min Rain = 0
KWT1 170352Z 09006KT 24/15 A2997 RMK A01 T02410150  RH  057%=      5-min Rain = 0
KWT1 170353Z 09006KT 24/15 A2997 RMK A01 T02400150  RH  057%=      5-min Rain = 0
KWT1 170354Z 09006KT 24/15 A2997 RMK A01 T02400150  RH  057%=      5-min Rain = 0
KWT1 170355Z 09006KT 24/15 A2997 RMK A01 T02380150  RH  058%=      5-min Rain = 0
KWT1 170356Z 09006KT 24/15 A2997 RMK A01 T02370150  RH  058%=      5-min Rain = 0
KWT1 170357Z 09007KT 24/15 A2997 RMK A01 T02370149  RH  058%=      5-min Rain = 0
KWT1 170358Z 09006KT 24/15 A2997 RMK A01 T02370150  RH  058%=      5-min Rain = 0
KWT1 170359Z 09007KT 24/15 A2997 RMK A01 T02370149  RH  058%=      5-min Rain = 0
KWT1 170400Z 09007KT 24/15 A2997 RMK A01 T02370148  RH  057%=      5-min Rain = 0
KWT1 170401Z 09008KT 24/15 A2997 RMK A01 T02370147  RH  057%=      5-min Rain = 0
KWT1 170402Z 09008KT 24/15 A2997 RMK A01 T02380148  RH  057%=      5-min Rain = 0
KWT1 170403Z 10010KT 24/15 A2997 RMK A01 T02390145  RH  056%=      5-min Rain = 0
KWT1 170404Z 10009KT 24/15 A2997 RMK A01 T02400145  RH  055%=      5-min Rain = 0
KWT1 170405Z 10010KT 24/15 A2997 RMK A01 T02400145  RH  055%=      5-min Rain = 0
KWT1 170406Z 10010KT 24/14 A2997 RMK A01 T02410143  RH  054%=      5-min Rain = 0
KWT1 170407Z 10009KT 24/14 A2997 RMK A01 T02420144  RH  054%=      5-min Rain = 0
KWT1 170408Z 09010KT 24/14 A2997 RMK A01 T02420144  RH  054%=      5-min Rain = 0
KWT1 170409Z 10009KT 24/14 A2997 RMK A01 T02420144  RH  054%=      5-min Rain = 0
KWT1 170410Z 10010KT 24/14 A2997 RMK A01 T02410142  RH  054%=      5-min Rain = 0
KWT1 170411Z 09009KT 24/14 A2997 RMK A01 T02420143  RH  054%=      5-min Rain = 0
KWT1 170412Z 09007KT 24/14 A2997 RMK A01 T02420144  RH  054%=      5-min Rain = 0
KWT1 170413Z 09007KT 24/15 A2997 RMK A01 T02410145  RH  055%=      5-min Rain = 0
KWT1 170414Z 09009KT 24/14 A2997 RMK A01 T02400144  RH  055%=      5-min Rain = 0
KWT1 170415Z 09007KT 24/14 A2997 RMK A01 T02400144  RH  055%=      5-min Rain = 0
KWT1 170416Z 09009KT 24/14 A2997 RMK A01 T02390143  RH  055%=      5-min Rain = 0
KWT1 170417Z 10009KT 24/14 A2997 RMK A01 T02390143  RH  055%=      5-min Rain = 0
KWT1 170418Z 09008KT 24/14 A2997 RMK A01 T02390144  RH  055%=      5-min Rain = 0
KWT1 170419Z 09009KT 24/14 A2997 RMK A01 T02390143  RH  055%=      5-min Rain = 0
KWT1 170420Z 08008KT 24/14 A2997 RMK A01 T02390143  RH  055%=      5-min Rain = 0
KWT1 170421Z 08008KT 24/14 A2997 RMK A01 T02380143  RH  055%=      5-min Rain = 0
KWT1 170422Z 09008KT 24/14 A2997 RMK A01 T02380143  RH  055%=      5-min Rain = 0
KWT1 170423Z 08008KT 24/14 A2997 RMK A01 T02380143  RH  056%=      5-min Rain = 0
KWT1 170424Z 08008KT 24/14 A2997 RMK A01 T02370143  RH  056%=      5-min Rain = 0
KWT1 170425Z 08008KT 24/14 A2997 RMK A01 T02360143  RH  056%=      5-min Rain = 0
KWT1 170426Z 08008KT 24/14 A2997 RMK A01 T02360143  RH  056%=      5-min Rain = 0
KWT1 170427Z 08007KT 24/14 A2997 RMK A01 T02370144  RH  056%=      5-min Rain = 0
KWT1 170428Z 08007KT 24/14 A2997 RMK A01 T02360144  RH  056%=      5-min Rain = 0
KWT1 170429Z 08009KT 24/14 A2997 RMK A01 T02350143  RH  056%=      5-min Rain = 0
KWT1 170430Z 08009KT 24/14 A2997 RMK A01 T02360143  RH  056%=      5-min Rain = 0
KWT1 170431Z 08009KT 24/14 A2997 RMK A01 T02360143  RH  056%=      5-min Rain = 0
KWT1 170432Z 09010KT 24/14 A2997 RMK A01 T02360143  RH  056%=      5-min Rain = 0
KWT1 170433Z 08009KT 24/14 A2997 RMK A01 T02360143  RH  056%=      5-min Rain = 0
KWT1 170434Z 09008KT 24/14 A2997 RMK A01 T02360144  RH  056%=      5-min Rain = 0
KWT1 170435Z 08008KT 24/14 A2997 RMK A01 T02350144  RH  056%=      5-min Rain = 0
KWT1 170436Z 09008KT 23/14 A2996 RMK A01 T02340144  RH  057%=      5-min Rain = 0
KWT1 170437Z 08010KT 23/14 A2996 RMK A01 T02340143  RH  057%=      5-min Rain = 0
KWT1 170438Z 08008KT 23/14 A2996 RMK A01 T02330143  RH  057%=      5-min Rain = 0
KWT1 170439Z 08008KT 23/14 A2996 RMK A01 T02330144  RH  057%=      5-min Rain = 0
KWT1 170440Z 08008KT 23/15 A2996 RMK A01 T02330145  RH  057%=      5-min Rain = 0
KWT1 170441Z 08007KT 23/14 A2996 RMK A01 T02320144  RH  058%=      5-min Rain = 0
KWT1 170442Z 08007KT 23/14 A2996 RMK A01 T02320144  RH  058%=      5-min Rain = 0
KWT1 170443Z 09009KT 23/14 A2996 RMK A01 T02320144  RH  058%=      5-min Rain = 0
KWT1 170444Z 08009KT 23/15 A2996 RMK A01 T02320145  RH  058%=      5-min Rain = 0
KWT1 170445Z 08007KT 23/15 A2996 RMK A01 T02320145  RH  058%=      5-min Rain = 0
KWT1 170446Z 09007KT 23/15 A2996 RMK A01 T02320146  RH  058%=      5-min Rain = 0
KWT1 170447Z 09006KT 23/15 A2997 RMK A01 T02310146  RH  059%=      5-min Rain = 0
KWT1 170448Z 09007KT 23/15 A2997 RMK A01 T02300146  RH  059%=      5-min Rain = 0
KWT1 170449Z 10006KT 23/15 A2997 RMK A01 T02290147  RH  060%=      5-min Rain = 0
KWT1 170450Z 09007KT 23/15 A2997 RMK A01 T02290147  RH  060%=      5-min Rain = 0
KWT1 170451Z 10006KT 23/15 A2997 RMK A01 T02280147  RH  060%=      5-min Rain = 0
KWT1 170452Z 09006KT 23/15 A2997 RMK A01 T02280147  RH  060%=      5-min Rain = 0
KWT1 170453Z 09006KT 23/15 A2997 RMK A01 T02280148  RH  061%=      5-min Rain = 0
KWT1 170454Z 10007KT 23/15 A2997 RMK A01 T02270148  RH  061%=      5-min Rain = 0
KWT1 170455Z 09008KT 23/15 A2997 RMK A01 T02270148  RH  061%=      5-min Rain = 0
KWT1 170456Z 09008KT 23/15 A2997 RMK A01 T02270149  RH  061%=      5-min Rain = 0
KWT1 170457Z 09007KT 23/15 A2996 RMK A01 T02270149  RH  061%=      5-min Rain = 0
KWT1 170458Z 10007KT 23/15 A2996 RMK A01 T02270149  RH  062%=      5-min Rain = 0
KWT1 170459Z 09007KT 23/15 A2996 RMK A01 T02260150  RH  062%=      5-min Rain = 0
KWT1 170500Z 10007KT 23/15 A2996 RMK A01 T02250150  RH  062%=      5-min Rain = 0

Page generated in 0.2663 seconds.